<?xml version="1.0" encoding="UTF-8" standalone="no" ?>
<gpx xmlns="http://www.topografix.com/GPX/1/1" xmlns:xsi="http://www.w3.org/2001/XMLSchema-instance" xsi:schemaLocation="http://www.topografix.com/GPX/1/1 http://www.topografix.com/GPX/1/1/gpx.xsd" version="1.1" creator="VisuGPX - https://www.visugpx.com">
  <metadata>
    <name>Esterel - Sur les traces du rallye de Théoule</name>
    <desc><![CDATA[Sortie VTT sur les classiques de Théoules]]></desc>
  </metadata>
  <trk>
    <name><![CDATA[Estérel - Rallye de Théoule]]></name>
    <desc><![CDATA[Sortie 1001 sur les monts de Théoule]]></desc>
    <trkseg>
      <trkpt lat="43.50854" lon="6.94126">
        <ele>6.1999998092651</ele>
        <time>2011-01-21T13:09:56.000Z</time>
      </trkpt>
      <trkpt lat="43.50854" lon="6.94124">
        <ele>6.4000000953674</ele>
        <time>2011-01-21T13:09:57.000Z</time>
      </trkpt>
      <trkpt lat="43.50848" lon="6.94105">
        <ele>7.5999999046326</ele>
        <time>2011-01-21T13:10:04.000Z</time>
      </trkpt>
      <trkpt lat="43.50842" lon="6.94083">
        <ele>8.8000001907349</ele>
        <time>2011-01-21T13:10:10.000Z</time>
      </trkpt>
      <trkpt lat="43.50833" lon="6.94065">
        <ele>9</ele>
        <time>2011-01-21T13:10:15.000Z</time>
      </trkpt>
      <trkpt lat="43.50828" lon="6.94049">
        <ele>8.6000003814697</ele>
        <time>2011-01-21T13:10:19.000Z</time>
      </trkpt>
      <trkpt lat="43.50832" lon="6.94022">
        <ele>7</ele>
        <time>2011-01-21T13:10:25.000Z</time>
      </trkpt>
      <trkpt lat="43.50844" lon="6.93997">
        <ele>5.1999998092651</ele>
        <time>2011-01-21T13:10:31.000Z</time>
      </trkpt>
      <trkpt lat="43.50849" lon="6.93969">
        <ele>5.1999998092651</ele>
        <time>2011-01-21T13:10:37.000Z</time>
      </trkpt>
      <trkpt lat="43.50848" lon="6.93962">
        <ele>5.4000000953674</ele>
        <time>2011-01-21T13:10:39.000Z</time>
      </trkpt>
      <trkpt lat="43.50838" lon="6.93948">
        <ele>6.1999998092651</ele>
        <time>2011-01-21T13:10:45.000Z</time>
      </trkpt>
      <trkpt lat="43.50823" lon="6.93928">
        <ele>9.1999998092651</ele>
        <time>2011-01-21T13:10:52.000Z</time>
      </trkpt>
      <trkpt lat="43.50821" lon="6.93912">
        <ele>10</ele>
        <time>2011-01-21T13:10:56.000Z</time>
      </trkpt>
      <trkpt lat="43.50833" lon="6.93877">
        <ele>7.8000001907349</ele>
        <time>2011-01-21T13:11:05.000Z</time>
      </trkpt>
      <trkpt lat="43.50849" lon="6.93847">
        <ele>7.8000001907349</ele>
        <time>2011-01-21T13:11:12.000Z</time>
      </trkpt>
      <trkpt lat="43.5085" lon="6.93844">
        <ele>8</ele>
        <time>2011-01-21T13:11:13.000Z</time>
      </trkpt>
      <trkpt lat="43.50858" lon="6.93831">
        <ele>8.1999998092651</ele>
        <time>2011-01-21T13:11:19.000Z</time>
      </trkpt>
      <trkpt lat="43.5086" lon="6.9383">
        <ele>8.1999998092651</ele>
        <time>2011-01-21T13:11:23.000Z</time>
      </trkpt>
      <trkpt lat="43.50855" lon="6.93827">
        <ele>8.6000003814697</ele>
        <time>2011-01-21T13:11:27.000Z</time>
      </trkpt>
      <trkpt lat="43.50854" lon="6.93822">
        <ele>9</ele>
        <time>2011-01-21T13:11:33.000Z</time>
      </trkpt>
      <trkpt lat="43.5085" lon="6.93809">
        <ele>10</ele>
        <time>2011-01-21T13:11:48.000Z</time>
      </trkpt>
      <trkpt lat="43.50843" lon="6.93797">
        <ele>11.199999809265</ele>
        <time>2011-01-21T13:11:55.000Z</time>
      </trkpt>
      <trkpt lat="43.50838" lon="6.93788">
        <ele>12</ele>
        <time>2011-01-21T13:12:00.000Z</time>
      </trkpt>
      <trkpt lat="43.50833" lon="6.93774">
        <ele>13.199999809265</ele>
        <time>2011-01-21T13:12:10.000Z</time>
      </trkpt>
      <trkpt lat="43.50792" lon="6.93715">
        <ele>20.60000038147</ele>
        <time>2011-01-21T13:12:21.000Z</time>
      </trkpt>
      <trkpt lat="43.50785" lon="6.93697">
        <ele>20.60000038147</ele>
        <time>2011-01-21T13:12:25.000Z</time>
      </trkpt>
      <trkpt lat="43.50776" lon="6.93675">
        <ele>20.200000762939</ele>
        <time>2011-01-21T13:12:32.000Z</time>
      </trkpt>
      <trkpt lat="43.50767" lon="6.93645">
        <ele>19.799999237061</ele>
        <time>2011-01-21T13:12:39.000Z</time>
      </trkpt>
      <trkpt lat="43.50752" lon="6.93604">
        <ele>17.39999961853</ele>
        <time>2011-01-21T13:12:49.000Z</time>
      </trkpt>
      <trkpt lat="43.50738" lon="6.93585">
        <ele>20.200000762939</ele>
        <time>2011-01-21T13:12:55.000Z</time>
      </trkpt>
      <trkpt lat="43.50723" lon="6.93565">
        <ele>25.60000038147</ele>
        <time>2011-01-21T13:13:02.000Z</time>
      </trkpt>
      <trkpt lat="43.50708" lon="6.93539">
        <ele>28.60000038147</ele>
        <time>2011-01-21T13:13:10.000Z</time>
      </trkpt>
      <trkpt lat="43.50697" lon="6.93519">
        <ele>29.200000762939</ele>
        <time>2011-01-21T13:13:17.000Z</time>
      </trkpt>
      <trkpt lat="43.50685" lon="6.93496">
        <ele>28.60000038147</ele>
        <time>2011-01-21T13:13:25.000Z</time>
      </trkpt>
      <trkpt lat="43.50684" lon="6.93485">
        <ele>29.200000762939</ele>
        <time>2011-01-21T13:13:28.000Z</time>
      </trkpt>
      <trkpt lat="43.50676" lon="6.93481">
        <ele>29.799999237061</ele>
        <time>2011-01-21T13:13:32.000Z</time>
      </trkpt>
      <trkpt lat="43.50676" lon="6.93494">
        <ele>29.39999961853</ele>
        <time>2011-01-21T13:13:36.000Z</time>
      </trkpt>
      <trkpt lat="43.50677" lon="6.93499">
        <ele>29</ele>
        <time>2011-01-21T13:13:38.000Z</time>
      </trkpt>
      <trkpt lat="43.50684" lon="6.93523">
        <ele>31.60000038147</ele>
        <time>2011-01-21T13:13:48.000Z</time>
      </trkpt>
      <trkpt lat="43.50686" lon="6.93538">
        <ele>33.200000762939</ele>
        <time>2011-01-21T13:13:54.000Z</time>
      </trkpt>
      <trkpt lat="43.50689" lon="6.93561">
        <ele>35.200000762939</ele>
        <time>2011-01-21T13:14:03.000Z</time>
      </trkpt>
      <trkpt lat="43.50692" lon="6.93582">
        <ele>36.599998474121</ele>
        <time>2011-01-21T13:14:12.000Z</time>
      </trkpt>
      <trkpt lat="43.50702" lon="6.93597">
        <ele>34.400001525879</ele>
        <time>2011-01-21T13:14:20.000Z</time>
      </trkpt>
      <trkpt lat="43.50713" lon="6.93612">
        <ele>31.60000038147</ele>
        <time>2011-01-21T13:14:29.000Z</time>
      </trkpt>
      <trkpt lat="43.50721" lon="6.93633">
        <ele>30</ele>
        <time>2011-01-21T13:14:39.000Z</time>
      </trkpt>
      <trkpt lat="43.50725" lon="6.93651">
        <ele>29.799999237061</ele>
        <time>2011-01-21T13:14:47.000Z</time>
      </trkpt>
      <trkpt lat="43.50726" lon="6.93667">
        <ele>30.39999961853</ele>
        <time>2011-01-21T13:14:54.000Z</time>
      </trkpt>
      <trkpt lat="43.50728" lon="6.93685">
        <ele>30.60000038147</ele>
        <time>2011-01-21T13:15:02.000Z</time>
      </trkpt>
      <trkpt lat="43.5073" lon="6.93712">
        <ele>30.799999237061</ele>
        <time>2011-01-21T13:15:14.000Z</time>
      </trkpt>
      <trkpt lat="43.5073" lon="6.93732">
        <ele>31.799999237061</ele>
        <time>2011-01-21T13:15:23.000Z</time>
      </trkpt>
      <trkpt lat="43.50728" lon="6.93749">
        <ele>33.200000762939</ele>
        <time>2011-01-21T13:15:31.000Z</time>
      </trkpt>
      <trkpt lat="43.50719" lon="6.93764">
        <ele>34.200000762939</ele>
        <time>2011-01-21T13:15:40.000Z</time>
      </trkpt>
      <trkpt lat="43.50709" lon="6.93763">
        <ele>35.799999237061</ele>
        <time>2011-01-21T13:15:46.000Z</time>
      </trkpt>
      <trkpt lat="43.50701" lon="6.93754">
        <ele>38</ele>
        <time>2011-01-21T13:15:53.000Z</time>
      </trkpt>
      <trkpt lat="43.50691" lon="6.93744">
        <ele>40.400001525879</ele>
        <time>2011-01-21T13:16:01.000Z</time>
      </trkpt>
      <trkpt lat="43.50684" lon="6.93736">
        <ele>42.400001525879</ele>
        <time>2011-01-21T13:16:07.000Z</time>
      </trkpt>
      <trkpt lat="43.50675" lon="6.93727">
        <ele>45.200000762939</ele>
        <time>2011-01-21T13:16:14.000Z</time>
      </trkpt>
      <trkpt lat="43.50664" lon="6.93712">
        <ele>49.400001525879</ele>
        <time>2011-01-21T13:16:23.000Z</time>
      </trkpt>
      <trkpt lat="43.50655" lon="6.937">
        <ele>52</ele>
        <time>2011-01-21T13:16:31.000Z</time>
      </trkpt>
      <trkpt lat="43.50644" lon="6.93688">
        <ele>55</ele>
        <time>2011-01-21T13:16:40.000Z</time>
      </trkpt>
      <trkpt lat="43.50629" lon="6.93673">
        <ele>60</ele>
        <time>2011-01-21T13:16:52.000Z</time>
      </trkpt>
      <trkpt lat="43.50615" lon="6.9366">
        <ele>64</ele>
        <time>2011-01-21T13:17:03.000Z</time>
      </trkpt>
      <trkpt lat="43.50601" lon="6.93647">
        <ele>68.199996948242</ele>
        <time>2011-01-21T13:17:14.000Z</time>
      </trkpt>
      <trkpt lat="43.50589" lon="6.93642">
        <ele>71.800003051758</ele>
        <time>2011-01-21T13:17:22.000Z</time>
      </trkpt>
      <trkpt lat="43.50575" lon="6.93641">
        <ele>73.199996948242</ele>
        <time>2011-01-21T13:17:30.000Z</time>
      </trkpt>
      <trkpt lat="43.50562" lon="6.93642">
        <ele>73</ele>
        <time>2011-01-21T13:17:38.000Z</time>
      </trkpt>
      <trkpt lat="43.50554" lon="6.93643">
        <ele>72.599998474121</ele>
        <time>2011-01-21T13:17:44.000Z</time>
      </trkpt>
      <trkpt lat="43.50552" lon="6.93643">
        <ele>72.599998474121</ele>
        <time>2011-01-21T13:17:45.000Z</time>
      </trkpt>
      <trkpt lat="43.50551" lon="6.93634">
        <ele>74.400001525879</ele>
        <time>2011-01-21T13:17:50.000Z</time>
      </trkpt>
      <trkpt lat="43.50554" lon="6.93628">
        <ele>75.400001525879</ele>
        <time>2011-01-21T13:17:53.000Z</time>
      </trkpt>
      <trkpt lat="43.50566" lon="6.93622">
        <ele>76.199996948242</ele>
        <time>2011-01-21T13:18:01.000Z</time>
      </trkpt>
      <trkpt lat="43.50579" lon="6.93616">
        <ele>76.800003051758</ele>
        <time>2011-01-21T13:18:09.000Z</time>
      </trkpt>
      <trkpt lat="43.50589" lon="6.93611">
        <ele>75.199996948242</ele>
        <time>2011-01-21T13:18:16.000Z</time>
      </trkpt>
      <trkpt lat="43.50601" lon="6.93611">
        <ele>71</ele>
        <time>2011-01-21T13:18:23.000Z</time>
      </trkpt>
      <trkpt lat="43.50603" lon="6.9361">
        <ele>70.599998474121</ele>
        <time>2011-01-21T13:18:24.000Z</time>
      </trkpt>
      <trkpt lat="43.50602" lon="6.93602">
        <ele>71.400001525879</ele>
        <time>2011-01-21T13:18:30.000Z</time>
      </trkpt>
      <trkpt lat="43.50598" lon="6.93597">
        <ele>73.599998474121</ele>
        <time>2011-01-21T13:18:33.000Z</time>
      </trkpt>
      <trkpt lat="43.50587" lon="6.93595">
        <ele>77.800003051758</ele>
        <time>2011-01-21T13:18:39.000Z</time>
      </trkpt>
      <trkpt lat="43.50576" lon="6.93597">
        <ele>79.599998474121</ele>
        <time>2011-01-21T13:18:45.000Z</time>
      </trkpt>
      <trkpt lat="43.50563" lon="6.93592">
        <ele>81.199996948242</ele>
        <time>2011-01-21T13:18:53.000Z</time>
      </trkpt>
      <trkpt lat="43.50552" lon="6.93592">
        <ele>81.800003051758</ele>
        <time>2011-01-21T13:18:59.000Z</time>
      </trkpt>
      <trkpt lat="43.50541" lon="6.93593">
        <ele>82.599998474121</ele>
        <time>2011-01-21T13:19:06.000Z</time>
      </trkpt>
      <trkpt lat="43.50528" lon="6.93589">
        <ele>84.199996948242</ele>
        <time>2011-01-21T13:19:14.000Z</time>
      </trkpt>
      <trkpt lat="43.50519" lon="6.93586">
        <ele>85.599998474121</ele>
        <time>2011-01-21T13:19:20.000Z</time>
      </trkpt>
      <trkpt lat="43.5051" lon="6.93579">
        <ele>87.199996948242</ele>
        <time>2011-01-21T13:19:26.000Z</time>
      </trkpt>
      <trkpt lat="43.50499" lon="6.93564">
        <ele>88.800003051758</ele>
        <time>2011-01-21T13:19:34.000Z</time>
      </trkpt>
      <trkpt lat="43.5049" lon="6.93554">
        <ele>89</ele>
        <time>2011-01-21T13:19:40.000Z</time>
      </trkpt>
      <trkpt lat="43.50479" lon="6.93544">
        <ele>89.400001525879</ele>
        <time>2011-01-21T13:19:47.000Z</time>
      </trkpt>
      <trkpt lat="43.5047" lon="6.93535">
        <ele>90.199996948242</ele>
        <time>2011-01-21T13:19:53.000Z</time>
      </trkpt>
      <trkpt lat="43.5046" lon="6.9353">
        <ele>90.599998474121</ele>
        <time>2011-01-21T13:19:59.000Z</time>
      </trkpt>
      <trkpt lat="43.50449" lon="6.93526">
        <ele>91.199996948242</ele>
        <time>2011-01-21T13:20:06.000Z</time>
      </trkpt>
      <trkpt lat="43.50433" lon="6.93521">
        <ele>92.199996948242</ele>
        <time>2011-01-21T13:20:15.000Z</time>
      </trkpt>
      <trkpt lat="43.50418" lon="6.93513">
        <ele>93.599998474121</ele>
        <time>2011-01-21T13:20:24.000Z</time>
      </trkpt>
      <trkpt lat="43.50406" lon="6.93505">
        <ele>95</ele>
        <time>2011-01-21T13:20:31.000Z</time>
      </trkpt>
      <trkpt lat="43.50393" lon="6.93497">
        <ele>96.199996948242</ele>
        <time>2011-01-21T13:20:39.000Z</time>
      </trkpt>
      <trkpt lat="43.50381" lon="6.93487">
        <ele>97</ele>
        <time>2011-01-21T13:20:47.000Z</time>
      </trkpt>
      <trkpt lat="43.50375" lon="6.93472">
        <ele>98.400001525879</ele>
        <time>2011-01-21T13:20:54.000Z</time>
      </trkpt>
      <trkpt lat="43.50367" lon="6.93456">
        <ele>101</ele>
        <time>2011-01-21T13:21:02.000Z</time>
      </trkpt>
      <trkpt lat="43.50362" lon="6.93444">
        <ele>103.40000152588</ele>
        <time>2011-01-21T13:21:08.000Z</time>
      </trkpt>
      <trkpt lat="43.50357" lon="6.93431">
        <ele>106.40000152588</ele>
        <time>2011-01-21T13:21:14.000Z</time>
      </trkpt>
      <trkpt lat="43.50354" lon="6.93428">
        <ele>107.40000152588</ele>
        <time>2011-01-21T13:21:16.000Z</time>
      </trkpt>
      <trkpt lat="43.50347" lon="6.93408">
        <ele>111.19999694824</ele>
        <time>2011-01-21T13:21:25.000Z</time>
      </trkpt>
      <trkpt lat="43.50347" lon="6.93406">
        <ele>111.40000152588</ele>
        <time>2011-01-21T13:21:28.000Z</time>
      </trkpt>
      <trkpt lat="43.50344" lon="6.93403">
        <ele>112.19999694824</ele>
        <time>2011-01-21T13:21:32.000Z</time>
      </trkpt>
      <trkpt lat="43.50344" lon="6.93402">
        <ele>112.19999694824</ele>
        <time>2011-01-21T13:21:43.000Z</time>
      </trkpt>
      <trkpt lat="43.50346" lon="6.93403">
        <ele>111.59999847412</ele>
        <time>2011-01-21T13:22:12.000Z</time>
      </trkpt>
      <trkpt lat="43.50346" lon="6.93402">
        <ele>111.59999847412</ele>
        <time>2011-01-21T13:22:29.000Z</time>
      </trkpt>
      <trkpt lat="43.50341" lon="6.93389">
        <ele>113</ele>
        <time>2011-01-21T13:22:36.000Z</time>
      </trkpt>
      <trkpt lat="43.50333" lon="6.93371">
        <ele>114.80000305176</ele>
        <time>2011-01-21T13:22:45.000Z</time>
      </trkpt>
      <trkpt lat="43.50326" lon="6.9335">
        <ele>117</ele>
        <time>2011-01-21T13:22:53.000Z</time>
      </trkpt>
      <trkpt lat="43.5032" lon="6.93329">
        <ele>119.80000305176</ele>
        <time>2011-01-21T13:23:01.000Z</time>
      </trkpt>
      <trkpt lat="43.50313" lon="6.93315">
        <ele>122.80000305176</ele>
        <time>2011-01-21T13:23:08.000Z</time>
      </trkpt>
      <trkpt lat="43.50305" lon="6.933">
        <ele>126</ele>
        <time>2011-01-21T13:23:16.000Z</time>
      </trkpt>
      <trkpt lat="43.503" lon="6.93287">
        <ele>128.39999389648</ele>
        <time>2011-01-21T13:23:23.000Z</time>
      </trkpt>
      <trkpt lat="43.50297" lon="6.93272">
        <ele>129.39999389648</ele>
        <time>2011-01-21T13:23:29.000Z</time>
      </trkpt>
      <trkpt lat="43.5029" lon="6.93257">
        <ele>132.19999694824</ele>
        <time>2011-01-21T13:23:37.000Z</time>
      </trkpt>
      <trkpt lat="43.50281" lon="6.93243">
        <ele>136.60000610352</ele>
        <time>2011-01-21T13:23:45.000Z</time>
      </trkpt>
      <trkpt lat="43.50272" lon="6.93226">
        <ele>141.80000305176</ele>
        <time>2011-01-21T13:23:54.000Z</time>
      </trkpt>
      <trkpt lat="43.50264" lon="6.93212">
        <ele>146</ele>
        <time>2011-01-21T13:24:02.000Z</time>
      </trkpt>
      <trkpt lat="43.50258" lon="6.93198">
        <ele>148.80000305176</ele>
        <time>2011-01-21T13:24:09.000Z</time>
      </trkpt>
      <trkpt lat="43.50252" lon="6.93181">
        <ele>151.39999389648</ele>
        <time>2011-01-21T13:24:17.000Z</time>
      </trkpt>
      <trkpt lat="43.50255" lon="6.93166">
        <ele>152</ele>
        <time>2011-01-21T13:24:24.000Z</time>
      </trkpt>
      <trkpt lat="43.50263" lon="6.93159">
        <ele>151.80000305176</ele>
        <time>2011-01-21T13:24:30.000Z</time>
      </trkpt>
      <trkpt lat="43.50276" lon="6.93154">
        <ele>150</ele>
        <time>2011-01-21T13:24:38.000Z</time>
      </trkpt>
      <trkpt lat="43.50291" lon="6.93147">
        <ele>147.80000305176</ele>
        <time>2011-01-21T13:24:48.000Z</time>
      </trkpt>
      <trkpt lat="43.50302" lon="6.93145">
        <ele>145.60000610352</ele>
        <time>2011-01-21T13:24:54.000Z</time>
      </trkpt>
      <trkpt lat="43.50316" lon="6.93138">
        <ele>143.39999389648</ele>
        <time>2011-01-21T13:25:03.000Z</time>
      </trkpt>
      <trkpt lat="43.50329" lon="6.93134">
        <ele>140.80000305176</ele>
        <time>2011-01-21T13:25:11.000Z</time>
      </trkpt>
      <trkpt lat="43.50342" lon="6.93132">
        <ele>138.19999694824</ele>
        <time>2011-01-21T13:25:18.000Z</time>
      </trkpt>
      <trkpt lat="43.50356" lon="6.93127">
        <ele>135.60000610352</ele>
        <time>2011-01-21T13:25:26.000Z</time>
      </trkpt>
      <trkpt lat="43.5036" lon="6.93123">
        <ele>134.60000610352</ele>
        <time>2011-01-21T13:25:29.000Z</time>
      </trkpt>
      <trkpt lat="43.50361" lon="6.93114">
        <ele>135</ele>
        <time>2011-01-21T13:25:35.000Z</time>
      </trkpt>
      <trkpt lat="43.50357" lon="6.93112">
        <ele>136.19999694824</ele>
        <time>2011-01-21T13:25:38.000Z</time>
      </trkpt>
      <trkpt lat="43.50345" lon="6.93109">
        <ele>139.80000305176</ele>
        <time>2011-01-21T13:25:46.000Z</time>
      </trkpt>
      <trkpt lat="43.50332" lon="6.93103">
        <ele>144.39999389648</ele>
        <time>2011-01-21T13:25:55.000Z</time>
      </trkpt>
      <trkpt lat="43.50318" lon="6.93096">
        <ele>149.60000610352</ele>
        <time>2011-01-21T13:26:04.000Z</time>
      </trkpt>
      <trkpt lat="43.50309" lon="6.93089">
        <ele>153.39999389648</ele>
        <time>2011-01-21T13:26:10.000Z</time>
      </trkpt>
      <trkpt lat="43.50301" lon="6.93079">
        <ele>156.80000305176</ele>
        <time>2011-01-21T13:26:17.000Z</time>
      </trkpt>
      <trkpt lat="43.50292" lon="6.93064">
        <ele>160.19999694824</ele>
        <time>2011-01-21T13:26:26.000Z</time>
      </trkpt>
      <trkpt lat="43.50284" lon="6.93052">
        <ele>163.19999694824</ele>
        <time>2011-01-21T13:26:33.000Z</time>
      </trkpt>
      <trkpt lat="43.50275" lon="6.93033">
        <ele>167.60000610352</ele>
        <time>2011-01-21T13:26:43.000Z</time>
      </trkpt>
      <trkpt lat="43.50272" lon="6.93018">
        <ele>170.19999694824</ele>
        <time>2011-01-21T13:26:50.000Z</time>
      </trkpt>
      <trkpt lat="43.50269" lon="6.93001">
        <ele>172.60000610352</ele>
        <time>2011-01-21T13:26:57.000Z</time>
      </trkpt>
      <trkpt lat="43.50267" lon="6.9298">
        <ele>174</ele>
        <time>2011-01-21T13:27:05.000Z</time>
      </trkpt>
      <trkpt lat="43.50269" lon="6.9296">
        <ele>173.80000305176</ele>
        <time>2011-01-21T13:27:13.000Z</time>
      </trkpt>
      <trkpt lat="43.50281" lon="6.92941">
        <ele>168</ele>
        <time>2011-01-21T13:27:23.000Z</time>
      </trkpt>
      <trkpt lat="43.50289" lon="6.92925">
        <ele>163.60000610352</ele>
        <time>2011-01-21T13:27:31.000Z</time>
      </trkpt>
      <trkpt lat="43.50289" lon="6.92916">
        <ele>164</ele>
        <time>2011-01-21T13:27:35.000Z</time>
      </trkpt>
      <trkpt lat="43.5028" lon="6.92896">
        <ele>168</ele>
        <time>2011-01-21T13:27:44.000Z</time>
      </trkpt>
      <trkpt lat="43.50275" lon="6.92872">
        <ele>170</ele>
        <time>2011-01-21T13:27:51.000Z</time>
      </trkpt>
      <trkpt lat="43.50268" lon="6.92842">
        <ele>173.19999694824</ele>
        <time>2011-01-21T13:27:56.000Z</time>
      </trkpt>
      <trkpt lat="43.50257" lon="6.9281">
        <ele>176.39999389648</ele>
        <time>2011-01-21T13:28:01.000Z</time>
      </trkpt>
      <trkpt lat="43.50252" lon="6.9279">
        <ele>177</ele>
        <time>2011-01-21T13:28:06.000Z</time>
      </trkpt>
      <trkpt lat="43.50246" lon="6.92759">
        <ele>176.60000610352</ele>
        <time>2011-01-21T13:28:16.000Z</time>
      </trkpt>
      <trkpt lat="43.50241" lon="6.9273">
        <ele>177.19999694824</ele>
        <time>2011-01-21T13:28:25.000Z</time>
      </trkpt>
      <trkpt lat="43.50237" lon="6.92699">
        <ele>177.80000305176</ele>
        <time>2011-01-21T13:28:35.000Z</time>
      </trkpt>
      <trkpt lat="43.50235" lon="6.92674">
        <ele>177</ele>
        <time>2011-01-21T13:28:43.000Z</time>
      </trkpt>
      <trkpt lat="43.50233" lon="6.92653">
        <ele>177.39999389648</ele>
        <time>2011-01-21T13:28:49.000Z</time>
      </trkpt>
      <trkpt lat="43.50226" lon="6.92622">
        <ele>179.39999389648</ele>
        <time>2011-01-21T13:28:58.000Z</time>
      </trkpt>
      <trkpt lat="43.50216" lon="6.92593">
        <ele>183.19999694824</ele>
        <time>2011-01-21T13:29:07.000Z</time>
      </trkpt>
      <trkpt lat="43.50209" lon="6.92564">
        <ele>188</ele>
        <time>2011-01-21T13:29:16.000Z</time>
      </trkpt>
      <trkpt lat="43.50207" lon="6.92529">
        <ele>191.80000305176</ele>
        <time>2011-01-21T13:29:26.000Z</time>
      </trkpt>
      <trkpt lat="43.50208" lon="6.92501">
        <ele>193.39999389648</ele>
        <time>2011-01-21T13:29:34.000Z</time>
      </trkpt>
      <trkpt lat="43.50213" lon="6.92479">
        <ele>196.39999389648</ele>
        <time>2011-01-21T13:29:41.000Z</time>
      </trkpt>
      <trkpt lat="43.50228" lon="6.92461">
        <ele>195.19999694824</ele>
        <time>2011-01-21T13:29:49.000Z</time>
      </trkpt>
      <trkpt lat="43.50245" lon="6.92446">
        <ele>193.80000305176</ele>
        <time>2011-01-21T13:29:57.000Z</time>
      </trkpt>
      <trkpt lat="43.50259" lon="6.92439">
        <ele>194</ele>
        <time>2011-01-21T13:30:03.000Z</time>
      </trkpt>
      <trkpt lat="43.50281" lon="6.92434">
        <ele>194.60000610352</ele>
        <time>2011-01-21T13:30:12.000Z</time>
      </trkpt>
      <trkpt lat="43.5031" lon="6.92437">
        <ele>192.19999694824</ele>
        <time>2011-01-21T13:30:23.000Z</time>
      </trkpt>
      <trkpt lat="43.50335" lon="6.92444">
        <ele>189</ele>
        <time>2011-01-21T13:30:32.000Z</time>
      </trkpt>
      <trkpt lat="43.50358" lon="6.92442">
        <ele>188.39999389648</ele>
        <time>2011-01-21T13:30:40.000Z</time>
      </trkpt>
      <trkpt lat="43.50389" lon="6.92444">
        <ele>186.60000610352</ele>
        <time>2011-01-21T13:30:50.000Z</time>
      </trkpt>
      <trkpt lat="43.5041" lon="6.9245">
        <ele>185</ele>
        <time>2011-01-21T13:30:58.000Z</time>
      </trkpt>
      <trkpt lat="43.50415" lon="6.92452">
        <ele>184.80000305176</ele>
        <time>2011-01-21T13:31:01.000Z</time>
      </trkpt>
      <trkpt lat="43.50415" lon="6.92451">
        <ele>184.80000305176</ele>
        <time>2011-01-21T13:31:11.000Z</time>
      </trkpt>
      <trkpt lat="43.50415" lon="6.9245">
        <ele>185</ele>
        <time>2011-01-21T13:31:31.000Z</time>
      </trkpt>
      <trkpt lat="43.50415" lon="6.92449">
        <ele>185</ele>
        <time>2011-01-21T13:32:00.000Z</time>
      </trkpt>
      <trkpt lat="43.50414" lon="6.92449">
        <ele>185</ele>
        <time>2011-01-21T13:32:21.000Z</time>
      </trkpt>
      <trkpt lat="43.50415" lon="6.92448">
        <ele>185</ele>
        <time>2011-01-21T13:32:45.000Z</time>
      </trkpt>
      <trkpt lat="43.50415" lon="6.9245">
        <ele>185</ele>
        <time>2011-01-21T13:33:06.000Z</time>
      </trkpt>
      <trkpt lat="43.50416" lon="6.92449">
        <ele>185</ele>
        <time>2011-01-21T13:33:38.000Z</time>
      </trkpt>
      <trkpt lat="43.50415" lon="6.92449">
        <ele>185</ele>
        <time>2011-01-21T13:33:48.000Z</time>
      </trkpt>
      <trkpt lat="43.50415" lon="6.92448">
        <ele>185</ele>
        <time>2011-01-21T13:34:08.000Z</time>
      </trkpt>
      <trkpt lat="43.50416" lon="6.92448">
        <ele>185</ele>
        <time>2011-01-21T13:34:22.000Z</time>
      </trkpt>
      <trkpt lat="43.50422" lon="6.92453">
        <ele>185</ele>
        <time>2011-01-21T13:34:26.000Z</time>
      </trkpt>
      <trkpt lat="43.50445" lon="6.92478">
        <ele>186.80000305176</ele>
        <time>2011-01-21T13:34:35.000Z</time>
      </trkpt>
      <trkpt lat="43.50464" lon="6.92496">
        <ele>190.19999694824</ele>
        <time>2011-01-21T13:34:42.000Z</time>
      </trkpt>
      <trkpt lat="43.50479" lon="6.92514">
        <ele>190.80000305176</ele>
        <time>2011-01-21T13:34:49.000Z</time>
      </trkpt>
      <trkpt lat="43.50493" lon="6.9252">
        <ele>192.80000305176</ele>
        <time>2011-01-21T13:34:55.000Z</time>
      </trkpt>
      <trkpt lat="43.50507" lon="6.92522">
        <ele>195.60000610352</ele>
        <time>2011-01-21T13:35:02.000Z</time>
      </trkpt>
      <trkpt lat="43.50514" lon="6.92525">
        <ele>196.80000305176</ele>
        <time>2011-01-21T13:35:06.000Z</time>
      </trkpt>
      <trkpt lat="43.50526" lon="6.92527">
        <ele>199</ele>
        <time>2011-01-21T13:35:13.000Z</time>
      </trkpt>
      <trkpt lat="43.50538" lon="6.92528">
        <ele>201.19999694824</ele>
        <time>2011-01-21T13:35:21.000Z</time>
      </trkpt>
      <trkpt lat="43.50544" lon="6.92527">
        <ele>202.80000305176</ele>
        <time>2011-01-21T13:35:26.000Z</time>
      </trkpt>
      <trkpt lat="43.50553" lon="6.9252">
        <ele>205.39999389648</ele>
        <time>2011-01-21T13:35:34.000Z</time>
      </trkpt>
      <trkpt lat="43.50557" lon="6.92519">
        <ele>206.19999694824</ele>
        <time>2011-01-21T13:35:39.000Z</time>
      </trkpt>
      <trkpt lat="43.50558" lon="6.92517">
        <ele>206.60000610352</ele>
        <time>2011-01-21T13:35:45.000Z</time>
      </trkpt>
      <trkpt lat="43.50565" lon="6.92515">
        <ele>208.60000610352</ele>
        <time>2011-01-21T13:35:53.000Z</time>
      </trkpt>
      <trkpt lat="43.50572" lon="6.92513">
        <ele>210</ele>
        <time>2011-01-21T13:36:00.000Z</time>
      </trkpt>
      <trkpt lat="43.50579" lon="6.92512">
        <ele>211.60000610352</ele>
        <time>2011-01-21T13:36:09.000Z</time>
      </trkpt>
      <trkpt lat="43.50585" lon="6.9251">
        <ele>212.19999694824</ele>
        <time>2011-01-21T13:36:16.000Z</time>
      </trkpt>
      <trkpt lat="43.50591" lon="6.92504">
        <ele>211.19999694824</ele>
        <time>2011-01-21T13:36:24.000Z</time>
      </trkpt>
      <trkpt lat="43.50591" lon="6.92505">
        <ele>211.19999694824</ele>
        <time>2011-01-21T13:36:30.000Z</time>
      </trkpt>
      <trkpt lat="43.50591" lon="6.92502">
        <ele>211.39999389648</ele>
        <time>2011-01-21T13:36:38.000Z</time>
      </trkpt>
      <trkpt lat="43.50592" lon="6.92502">
        <ele>211.39999389648</ele>
        <time>2011-01-21T13:36:49.000Z</time>
      </trkpt>
      <trkpt lat="43.50592" lon="6.92501">
        <ele>211.39999389648</ele>
        <time>2011-01-21T13:36:51.000Z</time>
      </trkpt>
      <trkpt lat="43.50599" lon="6.92485">
        <ele>209.80000305176</ele>
        <time>2011-01-21T13:36:58.000Z</time>
      </trkpt>
      <trkpt lat="43.506" lon="6.92474">
        <ele>209.60000610352</ele>
        <time>2011-01-21T13:37:04.000Z</time>
      </trkpt>
      <trkpt lat="43.50603" lon="6.9246">
        <ele>209.19999694824</ele>
        <time>2011-01-21T13:37:10.000Z</time>
      </trkpt>
      <trkpt lat="43.50606" lon="6.92447">
        <ele>209</ele>
        <time>2011-01-21T13:37:16.000Z</time>
      </trkpt>
      <trkpt lat="43.50609" lon="6.92435">
        <ele>208.80000305176</ele>
        <time>2011-01-21T13:37:21.000Z</time>
      </trkpt>
      <trkpt lat="43.50614" lon="6.92414">
        <ele>209</ele>
        <time>2011-01-21T13:37:29.000Z</time>
      </trkpt>
      <trkpt lat="43.50618" lon="6.92399">
        <ele>208.80000305176</ele>
        <time>2011-01-21T13:37:35.000Z</time>
      </trkpt>
      <trkpt lat="43.50618" lon="6.92382">
        <ele>209.19999694824</ele>
        <time>2011-01-21T13:37:40.000Z</time>
      </trkpt>
      <trkpt lat="43.50619" lon="6.92371">
        <ele>209.39999389648</ele>
        <time>2011-01-21T13:37:44.000Z</time>
      </trkpt>
      <trkpt lat="43.50622" lon="6.92355">
        <ele>209.60000610352</ele>
        <time>2011-01-21T13:37:50.000Z</time>
      </trkpt>
      <trkpt lat="43.50622" lon="6.9235">
        <ele>209.80000305176</ele>
        <time>2011-01-21T13:37:52.000Z</time>
      </trkpt>
      <trkpt lat="43.50629" lon="6.92334">
        <ele>210.60000610352</ele>
        <time>2011-01-21T13:37:58.000Z</time>
      </trkpt>
      <trkpt lat="43.50631" lon="6.92332">
        <ele>210.60000610352</ele>
        <time>2011-01-21T13:38:04.000Z</time>
      </trkpt>
      <trkpt lat="43.50632" lon="6.92327">
        <ele>210</ele>
        <time>2011-01-21T13:38:12.000Z</time>
      </trkpt>
      <trkpt lat="43.50632" lon="6.92325">
        <ele>209.80000305176</ele>
        <time>2011-01-21T13:38:19.000Z</time>
      </trkpt>
      <trkpt lat="43.50634" lon="6.9232">
        <ele>209.19999694824</ele>
        <time>2011-01-21T13:38:25.000Z</time>
      </trkpt>
      <trkpt lat="43.50635" lon="6.92317">
        <ele>209</ele>
        <time>2011-01-21T13:38:26.000Z</time>
      </trkpt>
      <trkpt lat="43.50645" lon="6.9231">
        <ele>208.80000305176</ele>
        <time>2011-01-21T13:38:31.000Z</time>
      </trkpt>
      <trkpt lat="43.50653" lon="6.92304">
        <ele>208.80000305176</ele>
        <time>2011-01-21T13:38:35.000Z</time>
      </trkpt>
      <trkpt lat="43.50668" lon="6.92296">
        <ele>208.60000610352</ele>
        <time>2011-01-21T13:38:39.000Z</time>
      </trkpt>
      <trkpt lat="43.50681" lon="6.92283">
        <ele>204.60000610352</ele>
        <time>2011-01-21T13:38:42.000Z</time>
      </trkpt>
      <trkpt lat="43.50703" lon="6.92262">
        <ele>200</ele>
        <time>2011-01-21T13:38:47.000Z</time>
      </trkpt>
      <trkpt lat="43.50706" lon="6.92259">
        <ele>199.60000610352</ele>
        <time>2011-01-21T13:38:48.000Z</time>
      </trkpt>
      <trkpt lat="43.50734" lon="6.92235">
        <ele>194.39999389648</ele>
        <time>2011-01-21T13:38:53.000Z</time>
      </trkpt>
      <trkpt lat="43.50748" lon="6.92228">
        <ele>192.39999389648</ele>
        <time>2011-01-21T13:38:55.000Z</time>
      </trkpt>
      <trkpt lat="43.50786" lon="6.92208">
        <ele>190.80000305176</ele>
        <time>2011-01-21T13:39:00.000Z</time>
      </trkpt>
      <trkpt lat="43.50801" lon="6.922">
        <ele>190.80000305176</ele>
        <time>2011-01-21T13:39:04.000Z</time>
      </trkpt>
      <trkpt lat="43.508" lon="6.92195">
        <ele>190.60000610352</ele>
        <time>2011-01-21T13:39:07.000Z</time>
      </trkpt>
      <trkpt lat="43.50796" lon="6.92197">
        <ele>190.60000610352</ele>
        <time>2011-01-21T13:39:10.000Z</time>
      </trkpt>
      <trkpt lat="43.50798" lon="6.922">
        <ele>190.80000305176</ele>
        <time>2011-01-21T13:39:13.000Z</time>
      </trkpt>
      <trkpt lat="43.50804" lon="6.92201">
        <ele>191</ele>
        <time>2011-01-21T14:01:17.000Z</time>
      </trkpt>
      <trkpt lat="43.50807" lon="6.92202">
        <ele>191.19999694824</ele>
        <time>2011-01-21T14:01:18.000Z</time>
      </trkpt>
      <trkpt lat="43.50819" lon="6.92205">
        <ele>191.60000610352</ele>
        <time>2011-01-21T14:01:22.000Z</time>
      </trkpt>
      <trkpt lat="43.50828" lon="6.92207">
        <ele>191.80000305176</ele>
        <time>2011-01-21T14:01:25.000Z</time>
      </trkpt>
      <trkpt lat="43.50851" lon="6.92223">
        <ele>196.60000610352</ele>
        <time>2011-01-21T14:01:33.000Z</time>
      </trkpt>
      <trkpt lat="43.50865" lon="6.92246">
        <ele>200.19999694824</ele>
        <time>2011-01-21T14:01:39.000Z</time>
      </trkpt>
      <trkpt lat="43.50867" lon="6.92273">
        <ele>199.60000610352</ele>
        <time>2011-01-21T14:01:45.000Z</time>
      </trkpt>
      <trkpt lat="43.50866" lon="6.92306">
        <ele>198.19999694824</ele>
        <time>2011-01-21T14:01:53.000Z</time>
      </trkpt>
      <trkpt lat="43.50869" lon="6.9235">
        <ele>197.60000610352</ele>
        <time>2011-01-21T14:02:04.000Z</time>
      </trkpt>
      <trkpt lat="43.50871" lon="6.92379">
        <ele>197.39999389648</ele>
        <time>2011-01-21T14:02:11.000Z</time>
      </trkpt>
      <trkpt lat="43.50875" lon="6.92413">
        <ele>198</ele>
        <time>2011-01-21T14:02:19.000Z</time>
      </trkpt>
      <trkpt lat="43.50882" lon="6.92442">
        <ele>199</ele>
        <time>2011-01-21T14:02:26.000Z</time>
      </trkpt>
      <trkpt lat="43.50889" lon="6.92464">
        <ele>200.60000610352</ele>
        <time>2011-01-21T14:02:32.000Z</time>
      </trkpt>
      <trkpt lat="43.50897" lon="6.92494">
        <ele>201.60000610352</ele>
        <time>2011-01-21T14:02:40.000Z</time>
      </trkpt>
      <trkpt lat="43.50905" lon="6.92526">
        <ele>202.19999694824</ele>
        <time>2011-01-21T14:02:49.000Z</time>
      </trkpt>
      <trkpt lat="43.50908" lon="6.9255">
        <ele>201</ele>
        <time>2011-01-21T14:02:55.000Z</time>
      </trkpt>
      <trkpt lat="43.50919" lon="6.92597">
        <ele>201</ele>
        <time>2011-01-21T14:03:06.000Z</time>
      </trkpt>
      <trkpt lat="43.50929" lon="6.92638">
        <ele>201.19999694824</ele>
        <time>2011-01-21T14:03:16.000Z</time>
      </trkpt>
      <trkpt lat="43.50938" lon="6.92661">
        <ele>202.39999389648</ele>
        <time>2011-01-21T14:03:23.000Z</time>
      </trkpt>
      <trkpt lat="43.50953" lon="6.92681">
        <ele>207.19999694824</ele>
        <time>2011-01-21T14:03:30.000Z</time>
      </trkpt>
      <trkpt lat="43.50968" lon="6.92704">
        <ele>212</ele>
        <time>2011-01-21T14:03:38.000Z</time>
      </trkpt>
      <trkpt lat="43.50974" lon="6.92726">
        <ele>212.39999389648</ele>
        <time>2011-01-21T14:03:45.000Z</time>
      </trkpt>
      <trkpt lat="43.5098" lon="6.92746">
        <ele>213.60000610352</ele>
        <time>2011-01-21T14:03:53.000Z</time>
      </trkpt>
      <trkpt lat="43.50981" lon="6.92763">
        <ele>214.19999694824</ele>
        <time>2011-01-21T14:03:59.000Z</time>
      </trkpt>
      <trkpt lat="43.50983" lon="6.92779">
        <ele>215.39999389648</ele>
        <time>2011-01-21T14:04:06.000Z</time>
      </trkpt>
      <trkpt lat="43.50983" lon="6.92799">
        <ele>216</ele>
        <time>2011-01-21T14:04:14.000Z</time>
      </trkpt>
      <trkpt lat="43.50981" lon="6.92812">
        <ele>215</ele>
        <time>2011-01-21T14:04:20.000Z</time>
      </trkpt>
      <trkpt lat="43.50983" lon="6.92823">
        <ele>216.19999694824</ele>
        <time>2011-01-21T14:04:26.000Z</time>
      </trkpt>
      <trkpt lat="43.50984" lon="6.92842">
        <ele>216.80000305176</ele>
        <time>2011-01-21T14:04:33.000Z</time>
      </trkpt>
      <trkpt lat="43.50988" lon="6.92866">
        <ele>218</ele>
        <time>2011-01-21T14:04:41.000Z</time>
      </trkpt>
      <trkpt lat="43.50992" lon="6.92896">
        <ele>219.60000610352</ele>
        <time>2011-01-21T14:04:50.000Z</time>
      </trkpt>
      <trkpt lat="43.50996" lon="6.92918">
        <ele>221</ele>
        <time>2011-01-21T14:04:57.000Z</time>
      </trkpt>
      <trkpt lat="43.51001" lon="6.92946">
        <ele>222</ele>
        <time>2011-01-21T14:05:06.000Z</time>
      </trkpt>
      <trkpt lat="43.51004" lon="6.92966">
        <ele>221.39999389648</ele>
        <time>2011-01-21T14:05:13.000Z</time>
      </trkpt>
      <trkpt lat="43.51005" lon="6.92988">
        <ele>220</ele>
        <time>2011-01-21T14:05:21.000Z</time>
      </trkpt>
      <trkpt lat="43.51005" lon="6.92998">
        <ele>219.19999694824</ele>
        <time>2011-01-21T14:05:25.000Z</time>
      </trkpt>
      <trkpt lat="43.5101" lon="6.93005">
        <ele>219</ele>
        <time>2011-01-21T14:05:31.000Z</time>
      </trkpt>
      <trkpt lat="43.51013" lon="6.93004">
        <ele>219.80000305176</ele>
        <time>2011-01-21T14:05:37.000Z</time>
      </trkpt>
      <trkpt lat="43.51012" lon="6.93006">
        <ele>219.19999694824</ele>
        <time>2011-01-21T14:05:59.000Z</time>
      </trkpt>
      <trkpt lat="43.51008" lon="6.93007">
        <ele>218.19999694824</ele>
        <time>2011-01-21T14:06:03.000Z</time>
      </trkpt>
      <trkpt lat="43.51003" lon="6.93003">
        <ele>218</ele>
        <time>2011-01-21T14:06:09.000Z</time>
      </trkpt>
      <trkpt lat="43.51004" lon="6.93009">
        <ele>217</ele>
        <time>2011-01-21T14:06:12.000Z</time>
      </trkpt>
      <trkpt lat="43.51008" lon="6.93007">
        <ele>218.39999389648</ele>
        <time>2011-01-21T14:06:15.000Z</time>
      </trkpt>
      <trkpt lat="43.51014" lon="6.92999">
        <ele>221</ele>
        <time>2011-01-21T14:06:18.000Z</time>
      </trkpt>
      <trkpt lat="43.51023" lon="6.9298">
        <ele>224.80000305176</ele>
        <time>2011-01-21T14:06:26.000Z</time>
      </trkpt>
      <trkpt lat="43.51024" lon="6.92978">
        <ele>225.39999389648</ele>
        <time>2011-01-21T14:06:30.000Z</time>
      </trkpt>
      <trkpt lat="43.51031" lon="6.92975">
        <ele>227.39999389648</ele>
        <time>2011-01-21T14:06:38.000Z</time>
      </trkpt>
      <trkpt lat="43.51035" lon="6.92974">
        <ele>228.60000610352</ele>
        <time>2011-01-21T14:06:42.000Z</time>
      </trkpt>
      <trkpt lat="43.5104" lon="6.92976">
        <ele>229.80000305176</ele>
        <time>2011-01-21T14:06:49.000Z</time>
      </trkpt>
      <trkpt lat="43.51053" lon="6.92976">
        <ele>232.80000305176</ele>
        <time>2011-01-21T14:06:55.000Z</time>
      </trkpt>
      <trkpt lat="43.51061" lon="6.92977">
        <ele>234.60000610352</ele>
        <time>2011-01-21T14:07:00.000Z</time>
      </trkpt>
      <trkpt lat="43.51064" lon="6.92977">
        <ele>235.39999389648</ele>
        <time>2011-01-21T14:07:05.000Z</time>
      </trkpt>
      <trkpt lat="43.51069" lon="6.92979">
        <ele>236.39999389648</ele>
        <time>2011-01-21T14:07:11.000Z</time>
      </trkpt>
      <trkpt lat="43.51082" lon="6.9298">
        <ele>239.19999694824</ele>
        <time>2011-01-21T14:07:17.000Z</time>
      </trkpt>
      <trkpt lat="43.51095" lon="6.92983">
        <ele>239.80000305176</ele>
        <time>2011-01-21T14:07:25.000Z</time>
      </trkpt>
      <trkpt lat="43.51104" lon="6.92984">
        <ele>240</ele>
        <time>2011-01-21T14:07:31.000Z</time>
      </trkpt>
      <trkpt lat="43.51114" lon="6.92987">
        <ele>240</ele>
        <time>2011-01-21T14:07:38.000Z</time>
      </trkpt>
      <trkpt lat="43.51121" lon="6.92989">
        <ele>240.19999694824</ele>
        <time>2011-01-21T14:07:43.000Z</time>
      </trkpt>
      <trkpt lat="43.51124" lon="6.92989">
        <ele>240.39999389648</ele>
        <time>2011-01-21T14:07:45.000Z</time>
      </trkpt>
      <trkpt lat="43.51126" lon="6.92989">
        <ele>240.60000610352</ele>
        <time>2011-01-21T14:07:52.000Z</time>
      </trkpt>
      <trkpt lat="43.5113" lon="6.92987">
        <ele>241</ele>
        <time>2011-01-21T14:07:58.000Z</time>
      </trkpt>
      <trkpt lat="43.5113" lon="6.92981">
        <ele>241.80000305176</ele>
        <time>2011-01-21T14:08:04.000Z</time>
      </trkpt>
      <trkpt lat="43.51128" lon="6.92971">
        <ele>243</ele>
        <time>2011-01-21T14:08:13.000Z</time>
      </trkpt>
      <trkpt lat="43.51129" lon="6.92962">
        <ele>244.19999694824</ele>
        <time>2011-01-21T14:08:21.000Z</time>
      </trkpt>
      <trkpt lat="43.51126" lon="6.92956">
        <ele>245</ele>
        <time>2011-01-21T14:08:28.000Z</time>
      </trkpt>
      <trkpt lat="43.51124" lon="6.92953">
        <ele>245.39999389648</ele>
        <time>2011-01-21T14:08:33.000Z</time>
      </trkpt>
      <trkpt lat="43.51122" lon="6.9295">
        <ele>245.80000305176</ele>
        <time>2011-01-21T14:08:36.000Z</time>
      </trkpt>
      <trkpt lat="43.51113" lon="6.92937">
        <ele>247.60000610352</ele>
        <time>2011-01-21T14:08:43.000Z</time>
      </trkpt>
      <trkpt lat="43.51107" lon="6.92932">
        <ele>248.60000610352</ele>
        <time>2011-01-21T14:08:47.000Z</time>
      </trkpt>
      <trkpt lat="43.51101" lon="6.92918">
        <ele>251</ele>
        <time>2011-01-21T14:08:53.000Z</time>
      </trkpt>
      <trkpt lat="43.51097" lon="6.92906">
        <ele>252</ele>
        <time>2011-01-21T14:09:00.000Z</time>
      </trkpt>
      <trkpt lat="43.51094" lon="6.92898">
        <ele>252.60000610352</ele>
        <time>2011-01-21T14:09:04.000Z</time>
      </trkpt>
      <trkpt lat="43.51093" lon="6.92893">
        <ele>252.80000305176</ele>
        <time>2011-01-21T14:09:08.000Z</time>
      </trkpt>
      <trkpt lat="43.51091" lon="6.92892">
        <ele>253.19999694824</ele>
        <time>2011-01-21T14:09:10.000Z</time>
      </trkpt>
      <trkpt lat="43.51088" lon="6.92884">
        <ele>254</ele>
        <time>2011-01-21T14:09:16.000Z</time>
      </trkpt>
      <trkpt lat="43.51088" lon="6.92881">
        <ele>254</ele>
        <time>2011-01-21T14:09:20.000Z</time>
      </trkpt>
      <trkpt lat="43.51086" lon="6.92868">
        <ele>255.19999694824</ele>
        <time>2011-01-21T14:09:26.000Z</time>
      </trkpt>
      <trkpt lat="43.51085" lon="6.92858">
        <ele>256</ele>
        <time>2011-01-21T14:09:30.000Z</time>
      </trkpt>
      <trkpt lat="43.51086" lon="6.92846">
        <ele>256.60000610352</ele>
        <time>2011-01-21T14:09:35.000Z</time>
      </trkpt>
      <trkpt lat="43.51089" lon="6.92834">
        <ele>257</ele>
        <time>2011-01-21T14:09:40.000Z</time>
      </trkpt>
      <trkpt lat="43.5109" lon="6.92818">
        <ele>256.60000610352</ele>
        <time>2011-01-21T14:09:47.000Z</time>
      </trkpt>
      <trkpt lat="43.51089" lon="6.92812">
        <ele>256.39999389648</ele>
        <time>2011-01-21T14:09:49.000Z</time>
      </trkpt>
      <trkpt lat="43.5109" lon="6.92795">
        <ele>255.80000305176</ele>
        <time>2011-01-21T14:09:55.000Z</time>
      </trkpt>
      <trkpt lat="43.51091" lon="6.92778">
        <ele>255.19999694824</ele>
        <time>2011-01-21T14:10:00.000Z</time>
      </trkpt>
      <trkpt lat="43.51091" lon="6.92771">
        <ele>255</ele>
        <time>2011-01-21T14:10:02.000Z</time>
      </trkpt>
      <trkpt lat="43.51092" lon="6.92762">
        <ele>254.60000610352</ele>
        <time>2011-01-21T14:10:05.000Z</time>
      </trkpt>
      <trkpt lat="43.51092" lon="6.92747">
        <ele>254</ele>
        <time>2011-01-21T14:10:10.000Z</time>
      </trkpt>
      <trkpt lat="43.51087" lon="6.92726">
        <ele>254.39999389648</ele>
        <time>2011-01-21T14:10:15.000Z</time>
      </trkpt>
      <trkpt lat="43.51086" lon="6.92717">
        <ele>254.39999389648</ele>
        <time>2011-01-21T14:10:18.000Z</time>
      </trkpt>
      <trkpt lat="43.51081" lon="6.92698">
        <ele>254</ele>
        <time>2011-01-21T14:10:24.000Z</time>
      </trkpt>
      <trkpt lat="43.51081" lon="6.92695">
        <ele>254</ele>
        <time>2011-01-21T14:10:25.000Z</time>
      </trkpt>
      <trkpt lat="43.51077" lon="6.92682">
        <ele>252.60000610352</ele>
        <time>2011-01-21T14:10:29.000Z</time>
      </trkpt>
      <trkpt lat="43.51067" lon="6.92659">
        <ele>249.60000610352</ele>
        <time>2011-01-21T14:10:36.000Z</time>
      </trkpt>
      <trkpt lat="43.51061" lon="6.92643">
        <ele>248</ele>
        <time>2011-01-21T14:10:41.000Z</time>
      </trkpt>
      <trkpt lat="43.51054" lon="6.92628">
        <ele>246.80000305176</ele>
        <time>2011-01-21T14:10:45.000Z</time>
      </trkpt>
      <trkpt lat="43.5105" lon="6.926">
        <ele>246.19999694824</ele>
        <time>2011-01-21T14:10:52.000Z</time>
      </trkpt>
      <trkpt lat="43.51043" lon="6.92581">
        <ele>246</ele>
        <time>2011-01-21T14:10:58.000Z</time>
      </trkpt>
      <trkpt lat="43.51042" lon="6.92578">
        <ele>245.80000305176</ele>
        <time>2011-01-21T14:10:59.000Z</time>
      </trkpt>
      <trkpt lat="43.51038" lon="6.92564">
        <ele>245.19999694824</ele>
        <time>2011-01-21T14:11:04.000Z</time>
      </trkpt>
      <trkpt lat="43.51036" lon="6.92552">
        <ele>245</ele>
        <time>2011-01-21T14:11:07.000Z</time>
      </trkpt>
      <trkpt lat="43.51029" lon="6.92532">
        <ele>245</ele>
        <time>2011-01-21T14:11:13.000Z</time>
      </trkpt>
      <trkpt lat="43.51029" lon="6.9253">
        <ele>245</ele>
        <time>2011-01-21T14:11:14.000Z</time>
      </trkpt>
      <trkpt lat="43.51023" lon="6.92508">
        <ele>245.80000305176</ele>
        <time>2011-01-21T14:11:21.000Z</time>
      </trkpt>
      <trkpt lat="43.51019" lon="6.92493">
        <ele>245.80000305176</ele>
        <time>2011-01-21T14:11:26.000Z</time>
      </trkpt>
      <trkpt lat="43.51017" lon="6.92488">
        <ele>245.60000610352</ele>
        <time>2011-01-21T14:11:28.000Z</time>
      </trkpt>
      <trkpt lat="43.51018" lon="6.92489">
        <ele>245.60000610352</ele>
        <time>2011-01-21T14:11:32.000Z</time>
      </trkpt>
      <trkpt lat="43.5102" lon="6.92499">
        <ele>246.19999694824</ele>
        <time>2011-01-21T14:11:38.000Z</time>
      </trkpt>
      <trkpt lat="43.51021" lon="6.92499">
        <ele>246</ele>
        <time>2011-01-21T14:11:44.000Z</time>
      </trkpt>
      <trkpt lat="43.5102" lon="6.92499">
        <ele>246.19999694824</ele>
        <time>2011-01-21T14:11:55.000Z</time>
      </trkpt>
      <trkpt lat="43.51021" lon="6.92499">
        <ele>246</ele>
        <time>2011-01-21T14:12:03.000Z</time>
      </trkpt>
      <trkpt lat="43.5102" lon="6.92499">
        <ele>246.19999694824</ele>
        <time>2011-01-21T14:12:11.000Z</time>
      </trkpt>
      <trkpt lat="43.51021" lon="6.92499">
        <ele>246</ele>
        <time>2011-01-21T14:12:17.000Z</time>
      </trkpt>
      <trkpt lat="43.51021" lon="6.92498">
        <ele>246</ele>
        <time>2011-01-21T14:12:37.000Z</time>
      </trkpt>
      <trkpt lat="43.5102" lon="6.92498">
        <ele>246</ele>
        <time>2011-01-21T14:13:06.000Z</time>
      </trkpt>
      <trkpt lat="43.5102" lon="6.92498">
        <ele>246</ele>
        <time>2011-01-21T14:13:14.000Z</time>
      </trkpt>
      <trkpt lat="43.51019" lon="6.92498">
        <ele>246.19999694824</ele>
        <time>2011-01-21T14:13:30.000Z</time>
      </trkpt>
      <trkpt lat="43.51019" lon="6.92497">
        <ele>246.19999694824</ele>
        <time>2011-01-21T14:13:46.000Z</time>
      </trkpt>
      <trkpt lat="43.51015" lon="6.92486">
        <ele>245.80000305176</ele>
        <time>2011-01-21T14:13:50.000Z</time>
      </trkpt>
      <trkpt lat="43.5101" lon="6.92471">
        <ele>245.80000305176</ele>
        <time>2011-01-21T14:13:55.000Z</time>
      </trkpt>
      <trkpt lat="43.51005" lon="6.92462">
        <ele>246.60000610352</ele>
        <time>2011-01-21T14:13:57.000Z</time>
      </trkpt>
      <trkpt lat="43.50997" lon="6.9244">
        <ele>245.80000305176</ele>
        <time>2011-01-21T14:14:02.000Z</time>
      </trkpt>
      <trkpt lat="43.50996" lon="6.92429">
        <ele>245</ele>
        <time>2011-01-21T14:14:06.000Z</time>
      </trkpt>
      <trkpt lat="43.50993" lon="6.92417">
        <ele>243.60000610352</ele>
        <time>2011-01-21T14:14:11.000Z</time>
      </trkpt>
      <trkpt lat="43.50992" lon="6.92416">
        <ele>243.39999389648</ele>
        <time>2011-01-21T14:14:21.000Z</time>
      </trkpt>
      <trkpt lat="43.50995" lon="6.9241">
        <ele>244</ele>
        <time>2011-01-21T14:15:04.000Z</time>
      </trkpt>
      <trkpt lat="43.50997" lon="6.92406">
        <ele>244.39999389648</ele>
        <time>2011-01-21T14:15:09.000Z</time>
      </trkpt>
      <trkpt lat="43.50996" lon="6.92407">
        <ele>244.39999389648</ele>
        <time>2011-01-21T14:15:12.000Z</time>
      </trkpt>
      <trkpt lat="43.50993" lon="6.92408">
        <ele>243.39999389648</ele>
        <time>2011-01-21T14:17:50.000Z</time>
      </trkpt>
      <trkpt lat="43.50993" lon="6.92408">
        <ele>243.39999389648</ele>
        <time>2011-01-21T14:17:51.000Z</time>
      </trkpt>
      <trkpt lat="43.50993" lon="6.92407">
        <ele>243.19999694824</ele>
        <time>2011-01-21T14:17:53.000Z</time>
      </trkpt>
      <trkpt lat="43.5099" lon="6.924">
        <ele>242</ele>
        <time>2011-01-21T14:17:56.000Z</time>
      </trkpt>
      <trkpt lat="43.5099" lon="6.92391">
        <ele>241.60000610352</ele>
        <time>2011-01-21T14:17:59.000Z</time>
      </trkpt>
      <trkpt lat="43.50985" lon="6.92373">
        <ele>239.39999389648</ele>
        <time>2011-01-21T14:18:04.000Z</time>
      </trkpt>
      <trkpt lat="43.50985" lon="6.92356">
        <ele>238.60000610352</ele>
        <time>2011-01-21T14:18:10.000Z</time>
      </trkpt>
      <trkpt lat="43.50985" lon="6.92342">
        <ele>238</ele>
        <time>2011-01-21T14:18:13.000Z</time>
      </trkpt>
      <trkpt lat="43.5099" lon="6.9233">
        <ele>238.60000610352</ele>
        <time>2011-01-21T14:18:17.000Z</time>
      </trkpt>
      <trkpt lat="43.50992" lon="6.92323">
        <ele>238.80000305176</ele>
        <time>2011-01-21T14:18:18.000Z</time>
      </trkpt>
      <trkpt lat="43.50997" lon="6.92282">
        <ele>237.39999389648</ele>
        <time>2011-01-21T14:18:23.000Z</time>
      </trkpt>
      <trkpt lat="43.50998" lon="6.92276">
        <ele>237.19999694824</ele>
        <time>2011-01-21T14:18:24.000Z</time>
      </trkpt>
      <trkpt lat="43.50998" lon="6.92266">
        <ele>236.39999389648</ele>
        <time>2011-01-21T14:18:27.000Z</time>
      </trkpt>
      <trkpt lat="43.50997" lon="6.92254">
        <ele>235.39999389648</ele>
        <time>2011-01-21T14:18:34.000Z</time>
      </trkpt>
      <trkpt lat="43.50996" lon="6.92231">
        <ele>234.60000610352</ele>
        <time>2011-01-21T14:18:40.000Z</time>
      </trkpt>
      <trkpt lat="43.50993" lon="6.92207">
        <ele>233.80000305176</ele>
        <time>2011-01-21T14:18:47.000Z</time>
      </trkpt>
      <trkpt lat="43.50993" lon="6.92202">
        <ele>233.60000610352</ele>
        <time>2011-01-21T14:18:49.000Z</time>
      </trkpt>
      <trkpt lat="43.50996" lon="6.92199">
        <ele>234.19999694824</ele>
        <time>2011-01-21T14:18:55.000Z</time>
      </trkpt>
      <trkpt lat="43.50995" lon="6.922">
        <ele>234.19999694824</ele>
        <time>2011-01-21T14:19:11.000Z</time>
      </trkpt>
      <trkpt lat="43.50995" lon="6.922">
        <ele>234.19999694824</ele>
        <time>2011-01-21T14:19:17.000Z</time>
      </trkpt>
      <trkpt lat="43.50996" lon="6.92201">
        <ele>234.19999694824</ele>
        <time>2011-01-21T14:19:36.000Z</time>
      </trkpt>
      <trkpt lat="43.51" lon="6.92197">
        <ele>235.19999694824</ele>
        <time>2011-01-21T14:19:40.000Z</time>
      </trkpt>
      <trkpt lat="43.51008" lon="6.92182">
        <ele>232.19999694824</ele>
        <time>2011-01-21T14:19:45.000Z</time>
      </trkpt>
      <trkpt lat="43.5101" lon="6.9217">
        <ele>231.60000610352</ele>
        <time>2011-01-21T14:19:48.000Z</time>
      </trkpt>
      <trkpt lat="43.51008" lon="6.92149">
        <ele>229.39999389648</ele>
        <time>2011-01-21T14:19:53.000Z</time>
      </trkpt>
      <trkpt lat="43.51007" lon="6.92146">
        <ele>229.19999694824</ele>
        <time>2011-01-21T14:19:54.000Z</time>
      </trkpt>
      <trkpt lat="43.50998" lon="6.92133">
        <ele>229.19999694824</ele>
        <time>2011-01-21T14:19:59.000Z</time>
      </trkpt>
      <trkpt lat="43.50993" lon="6.92128">
        <ele>227.39999389648</ele>
        <time>2011-01-21T14:20:02.000Z</time>
      </trkpt>
      <trkpt lat="43.50993" lon="6.92121">
        <ele>226</ele>
        <time>2011-01-21T14:20:04.000Z</time>
      </trkpt>
      <trkpt lat="43.50991" lon="6.92098">
        <ele>222</ele>
        <time>2011-01-21T14:20:10.000Z</time>
      </trkpt>
      <trkpt lat="43.50993" lon="6.92088">
        <ele>220.80000305176</ele>
        <time>2011-01-21T14:20:13.000Z</time>
      </trkpt>
      <trkpt lat="43.50984" lon="6.92067">
        <ele>214.39999389648</ele>
        <time>2011-01-21T14:20:18.000Z</time>
      </trkpt>
      <trkpt lat="43.50978" lon="6.92055">
        <ele>210</ele>
        <time>2011-01-21T14:20:22.000Z</time>
      </trkpt>
      <trkpt lat="43.50978" lon="6.92055">
        <ele>210</ele>
        <time>2011-01-21T14:20:28.000Z</time>
      </trkpt>
      <trkpt lat="43.50981" lon="6.9206">
        <ele>212</ele>
        <time>2011-01-21T14:20:32.000Z</time>
      </trkpt>
      <trkpt lat="43.50984" lon="6.92066">
        <ele>214</ele>
        <time>2011-01-21T14:20:38.000Z</time>
      </trkpt>
      <trkpt lat="43.50984" lon="6.92066">
        <ele>214</ele>
        <time>2011-01-21T14:20:44.000Z</time>
      </trkpt>
      <trkpt lat="43.50978" lon="6.92052">
        <ele>209.60000610352</ele>
        <time>2011-01-21T14:20:50.000Z</time>
      </trkpt>
      <trkpt lat="43.50978" lon="6.92039">
        <ele>206.80000305176</ele>
        <time>2011-01-21T14:20:55.000Z</time>
      </trkpt>
      <trkpt lat="43.50984" lon="6.92029">
        <ele>206.19999694824</ele>
        <time>2011-01-21T14:20:59.000Z</time>
      </trkpt>
      <trkpt lat="43.50983" lon="6.92025">
        <ele>205</ele>
        <time>2011-01-21T14:21:00.000Z</time>
      </trkpt>
      <trkpt lat="43.5098" lon="6.92016">
        <ele>202</ele>
        <time>2011-01-21T14:21:02.000Z</time>
      </trkpt>
      <trkpt lat="43.50981" lon="6.91997">
        <ele>198.39999389648</ele>
        <time>2011-01-21T14:21:07.000Z</time>
      </trkpt>
      <trkpt lat="43.5098" lon="6.91984">
        <ele>196.60000610352</ele>
        <time>2011-01-21T14:21:11.000Z</time>
      </trkpt>
      <trkpt lat="43.50977" lon="6.91965">
        <ele>193.80000305176</ele>
        <time>2011-01-21T14:21:15.000Z</time>
      </trkpt>
      <trkpt lat="43.50979" lon="6.9194">
        <ele>191.39999389648</ele>
        <time>2011-01-21T14:21:20.000Z</time>
      </trkpt>
      <trkpt lat="43.50983" lon="6.91919">
        <ele>190</ele>
        <time>2011-01-21T14:21:24.000Z</time>
      </trkpt>
      <trkpt lat="43.50988" lon="6.91896">
        <ele>189.80000305176</ele>
        <time>2011-01-21T14:21:28.000Z</time>
      </trkpt>
      <trkpt lat="43.50993" lon="6.91875">
        <ele>189.80000305176</ele>
        <time>2011-01-21T14:21:31.000Z</time>
      </trkpt>
      <trkpt lat="43.51" lon="6.91854">
        <ele>190.80000305176</ele>
        <time>2011-01-21T14:21:35.000Z</time>
      </trkpt>
      <trkpt lat="43.51004" lon="6.91844">
        <ele>189.19999694824</ele>
        <time>2011-01-21T14:21:40.000Z</time>
      </trkpt>
      <trkpt lat="43.51005" lon="6.91844">
        <ele>189</ele>
        <time>2011-01-21T14:21:58.000Z</time>
      </trkpt>
      <trkpt lat="43.51005" lon="6.91844">
        <ele>189</ele>
        <time>2011-01-21T14:22:10.000Z</time>
      </trkpt>
      <trkpt lat="43.51006" lon="6.91844">
        <ele>188.80000305176</ele>
        <time>2011-01-21T14:22:27.000Z</time>
      </trkpt>
      <trkpt lat="43.51006" lon="6.91843">
        <ele>188.80000305176</ele>
        <time>2011-01-21T14:22:33.000Z</time>
      </trkpt>
      <trkpt lat="43.51005" lon="6.91843">
        <ele>188.80000305176</ele>
        <time>2011-01-21T14:22:56.000Z</time>
      </trkpt>
      <trkpt lat="43.51005" lon="6.91843">
        <ele>188.80000305176</ele>
        <time>2011-01-21T14:23:13.000Z</time>
      </trkpt>
      <trkpt lat="43.51005" lon="6.91843">
        <ele>189.19999694824</ele>
        <time>2011-01-21T14:23:26.000Z</time>
      </trkpt>
      <trkpt lat="43.51005" lon="6.91843">
        <ele>189</ele>
        <time>2011-01-21T14:23:35.000Z</time>
      </trkpt>
      <trkpt lat="43.51006" lon="6.91842">
        <ele>188.80000305176</ele>
        <time>2011-01-21T14:23:59.000Z</time>
      </trkpt>
      <trkpt lat="43.51006" lon="6.91842">
        <ele>188.80000305176</ele>
        <time>2011-01-21T14:24:16.000Z</time>
      </trkpt>
      <trkpt lat="43.51005" lon="6.91843">
        <ele>188.80000305176</ele>
        <time>2011-01-21T14:24:26.000Z</time>
      </trkpt>
      <trkpt lat="43.51006" lon="6.91842">
        <ele>188.80000305176</ele>
        <time>2011-01-21T14:24:31.000Z</time>
      </trkpt>
      <trkpt lat="43.51015" lon="6.91832">
        <ele>185.60000610352</ele>
        <time>2011-01-21T14:24:35.000Z</time>
      </trkpt>
      <trkpt lat="43.51031" lon="6.91818">
        <ele>180</ele>
        <time>2011-01-21T14:24:40.000Z</time>
      </trkpt>
      <trkpt lat="43.5104" lon="6.91802">
        <ele>176.60000610352</ele>
        <time>2011-01-21T14:24:44.000Z</time>
      </trkpt>
      <trkpt lat="43.51049" lon="6.91793">
        <ele>174.19999694824</ele>
        <time>2011-01-21T14:24:47.000Z</time>
      </trkpt>
      <trkpt lat="43.51066" lon="6.91783">
        <ele>171.39999389648</ele>
        <time>2011-01-21T14:24:51.000Z</time>
      </trkpt>
      <trkpt lat="43.51082" lon="6.91774">
        <ele>169.39999389648</ele>
        <time>2011-01-21T14:24:56.000Z</time>
      </trkpt>
      <trkpt lat="43.51086" lon="6.91771">
        <ele>169</ele>
        <time>2011-01-21T14:24:57.000Z</time>
      </trkpt>
      <trkpt lat="43.51117" lon="6.91752">
        <ele>166.39999389648</ele>
        <time>2011-01-21T14:25:03.000Z</time>
      </trkpt>
      <trkpt lat="43.51122" lon="6.9175">
        <ele>166</ele>
        <time>2011-01-21T14:25:04.000Z</time>
      </trkpt>
      <trkpt lat="43.51142" lon="6.91738">
        <ele>161.80000305176</ele>
        <time>2011-01-21T14:25:08.000Z</time>
      </trkpt>
      <trkpt lat="43.51161" lon="6.9173">
        <ele>159.19999694824</ele>
        <time>2011-01-21T14:25:12.000Z</time>
      </trkpt>
      <trkpt lat="43.51172" lon="6.91728">
        <ele>157.60000610352</ele>
        <time>2011-01-21T14:25:14.000Z</time>
      </trkpt>
      <trkpt lat="43.5118" lon="6.91711">
        <ele>153.39999389648</ele>
        <time>2011-01-21T14:25:19.000Z</time>
      </trkpt>
      <trkpt lat="43.51178" lon="6.91707">
        <ele>153.19999694824</ele>
        <time>2011-01-21T14:25:20.000Z</time>
      </trkpt>
      <trkpt lat="43.51171" lon="6.91697">
        <ele>152.80000305176</ele>
        <time>2011-01-21T14:25:23.000Z</time>
      </trkpt>
      <trkpt lat="43.51158" lon="6.91693">
        <ele>152.80000305176</ele>
        <time>2011-01-21T14:25:27.000Z</time>
      </trkpt>
      <trkpt lat="43.51144" lon="6.91693">
        <ele>152.80000305176</ele>
        <time>2011-01-21T14:25:30.000Z</time>
      </trkpt>
      <trkpt lat="43.51131" lon="6.91693">
        <ele>152.60000610352</ele>
        <time>2011-01-21T14:25:34.000Z</time>
      </trkpt>
      <trkpt lat="43.51117" lon="6.91693">
        <ele>152.39999389648</ele>
        <time>2011-01-21T14:25:37.000Z</time>
      </trkpt>
      <trkpt lat="43.51112" lon="6.91689">
        <ele>151.39999389648</ele>
        <time>2011-01-21T14:25:41.000Z</time>
      </trkpt>
      <trkpt lat="43.51117" lon="6.91683">
        <ele>150</ele>
        <time>2011-01-21T14:25:46.000Z</time>
      </trkpt>
      <trkpt lat="43.51113" lon="6.91678">
        <ele>148.39999389648</ele>
        <time>2011-01-21T14:25:50.000Z</time>
      </trkpt>
      <trkpt lat="43.5111" lon="6.91677">
        <ele>148.19999694824</ele>
        <time>2011-01-21T14:25:54.000Z</time>
      </trkpt>
      <trkpt lat="43.5111" lon="6.91677">
        <ele>148.19999694824</ele>
        <time>2011-01-21T14:26:01.000Z</time>
      </trkpt>
      <trkpt lat="43.51108" lon="6.91676">
        <ele>148</ele>
        <time>2011-01-21T14:26:13.000Z</time>
      </trkpt>
      <trkpt lat="43.51108" lon="6.91676">
        <ele>147.80000305176</ele>
        <time>2011-01-21T14:26:19.000Z</time>
      </trkpt>
      <trkpt lat="43.5111" lon="6.91675">
        <ele>147.80000305176</ele>
        <time>2011-01-21T14:26:46.000Z</time>
      </trkpt>
      <trkpt lat="43.51108" lon="6.91672">
        <ele>146.80000305176</ele>
        <time>2011-01-21T14:27:06.000Z</time>
      </trkpt>
      <trkpt lat="43.51108" lon="6.91673">
        <ele>147</ele>
        <time>2011-01-21T14:27:12.000Z</time>
      </trkpt>
      <trkpt lat="43.51109" lon="6.91674">
        <ele>147.39999389648</ele>
        <time>2011-01-21T14:27:24.000Z</time>
      </trkpt>
      <trkpt lat="43.51109" lon="6.91675">
        <ele>147.80000305176</ele>
        <time>2011-01-21T14:27:31.000Z</time>
      </trkpt>
      <trkpt lat="43.51104" lon="6.91677">
        <ele>148</ele>
        <time>2011-01-21T14:27:36.000Z</time>
      </trkpt>
      <trkpt lat="43.5109" lon="6.9168">
        <ele>148.39999389648</ele>
        <time>2011-01-21T14:27:43.000Z</time>
      </trkpt>
      <trkpt lat="43.51077" lon="6.91685">
        <ele>149.80000305176</ele>
        <time>2011-01-21T14:27:49.000Z</time>
      </trkpt>
      <trkpt lat="43.51063" lon="6.91688">
        <ele>150.60000610352</ele>
        <time>2011-01-21T14:27:55.000Z</time>
      </trkpt>
      <trkpt lat="43.51052" lon="6.91689">
        <ele>151</ele>
        <time>2011-01-21T14:28:00.000Z</time>
      </trkpt>
      <trkpt lat="43.51037" lon="6.91689">
        <ele>151</ele>
        <time>2011-01-21T14:28:07.000Z</time>
      </trkpt>
      <trkpt lat="43.51019" lon="6.91692">
        <ele>152.19999694824</ele>
        <time>2011-01-21T14:28:14.000Z</time>
      </trkpt>
      <trkpt lat="43.50998" lon="6.91693">
        <ele>152.39999389648</ele>
        <time>2011-01-21T14:28:23.000Z</time>
      </trkpt>
      <trkpt lat="43.50983" lon="6.91695">
        <ele>150.39999389648</ele>
        <time>2011-01-21T14:28:30.000Z</time>
      </trkpt>
      <trkpt lat="43.50965" lon="6.91699">
        <ele>148.80000305176</ele>
        <time>2011-01-21T14:28:39.000Z</time>
      </trkpt>
      <trkpt lat="43.50951" lon="6.91706">
        <ele>148.60000610352</ele>
        <time>2011-01-21T14:28:47.000Z</time>
      </trkpt>
      <trkpt lat="43.50937" lon="6.91715">
        <ele>148.80000305176</ele>
        <time>2011-01-21T14:28:55.000Z</time>
      </trkpt>
      <trkpt lat="43.50924" lon="6.91731">
        <ele>150.60000610352</ele>
        <time>2011-01-21T14:29:03.000Z</time>
      </trkpt>
      <trkpt lat="43.5092" lon="6.91752">
        <ele>155</ele>
        <time>2011-01-21T14:29:10.000Z</time>
      </trkpt>
      <trkpt lat="43.50923" lon="6.91783">
        <ele>159.60000610352</ele>
        <time>2011-01-21T14:29:20.000Z</time>
      </trkpt>
      <trkpt lat="43.50925" lon="6.91814">
        <ele>164.19999694824</ele>
        <time>2011-01-21T14:29:30.000Z</time>
      </trkpt>
      <trkpt lat="43.50925" lon="6.91842">
        <ele>167.39999389648</ele>
        <time>2011-01-21T14:29:39.000Z</time>
      </trkpt>
      <trkpt lat="43.5092" lon="6.91869">
        <ele>168.80000305176</ele>
        <time>2011-01-21T14:29:48.000Z</time>
      </trkpt>
      <trkpt lat="43.50916" lon="6.91889">
        <ele>169.60000610352</ele>
        <time>2011-01-21T14:29:55.000Z</time>
      </trkpt>
      <trkpt lat="43.50912" lon="6.91912">
        <ele>169.80000305176</ele>
        <time>2011-01-21T14:30:03.000Z</time>
      </trkpt>
      <trkpt lat="43.50909" lon="6.9194">
        <ele>171.60000610352</ele>
        <time>2011-01-21T14:30:13.000Z</time>
      </trkpt>
      <trkpt lat="43.5091" lon="6.91962">
        <ele>174.60000610352</ele>
        <time>2011-01-21T14:30:21.000Z</time>
      </trkpt>
      <trkpt lat="43.5091" lon="6.91982">
        <ele>177.39999389648</ele>
        <time>2011-01-21T14:30:29.000Z</time>
      </trkpt>
      <trkpt lat="43.50908" lon="6.9201">
        <ele>180.80000305176</ele>
        <time>2011-01-21T14:30:39.000Z</time>
      </trkpt>
      <trkpt lat="43.50902" lon="6.92033">
        <ele>184.39999389648</ele>
        <time>2011-01-21T14:30:48.000Z</time>
      </trkpt>
      <trkpt lat="43.5089" lon="6.92055">
        <ele>185.39999389648</ele>
        <time>2011-01-21T14:30:57.000Z</time>
      </trkpt>
      <trkpt lat="43.50877" lon="6.92073">
        <ele>185.80000305176</ele>
        <time>2011-01-21T14:31:06.000Z</time>
      </trkpt>
      <trkpt lat="43.50867" lon="6.92085">
        <ele>185.80000305176</ele>
        <time>2011-01-21T14:31:12.000Z</time>
      </trkpt>
      <trkpt lat="43.50855" lon="6.92093">
        <ele>183.60000610352</ele>
        <time>2011-01-21T14:31:18.000Z</time>
      </trkpt>
      <trkpt lat="43.50843" lon="6.92104">
        <ele>182.19999694824</ele>
        <time>2011-01-21T14:31:25.000Z</time>
      </trkpt>
      <trkpt lat="43.50831" lon="6.92125">
        <ele>183.39999389648</ele>
        <time>2011-01-21T14:31:34.000Z</time>
      </trkpt>
      <trkpt lat="43.50817" lon="6.92151">
        <ele>187.80000305176</ele>
        <time>2011-01-21T14:31:45.000Z</time>
      </trkpt>
      <trkpt lat="43.50804" lon="6.92166">
        <ele>189.80000305176</ele>
        <time>2011-01-21T14:31:53.000Z</time>
      </trkpt>
      <trkpt lat="43.50793" lon="6.92172">
        <ele>189.19999694824</ele>
        <time>2011-01-21T14:31:59.000Z</time>
      </trkpt>
      <trkpt lat="43.50778" lon="6.92183">
        <ele>188.80000305176</ele>
        <time>2011-01-21T14:32:08.000Z</time>
      </trkpt>
      <trkpt lat="43.50765" lon="6.92186">
        <ele>188.19999694824</ele>
        <time>2011-01-21T14:32:14.000Z</time>
      </trkpt>
      <trkpt lat="43.50752" lon="6.92187">
        <ele>187.39999389648</ele>
        <time>2011-01-21T14:32:21.000Z</time>
      </trkpt>
      <trkpt lat="43.50733" lon="6.9219">
        <ele>187</ele>
        <time>2011-01-21T14:32:30.000Z</time>
      </trkpt>
      <trkpt lat="43.50714" lon="6.92196">
        <ele>187.19999694824</ele>
        <time>2011-01-21T14:32:38.000Z</time>
      </trkpt>
      <trkpt lat="43.50696" lon="6.92204">
        <ele>188.80000305176</ele>
        <time>2011-01-21T14:32:46.000Z</time>
      </trkpt>
      <trkpt lat="43.50673" lon="6.92215">
        <ele>192.19999694824</ele>
        <time>2011-01-21T14:32:56.000Z</time>
      </trkpt>
      <trkpt lat="43.50652" lon="6.92224">
        <ele>193.39999389648</ele>
        <time>2011-01-21T14:33:05.000Z</time>
      </trkpt>
      <trkpt lat="43.50631" lon="6.92233">
        <ele>194.19999694824</ele>
        <time>2011-01-21T14:33:14.000Z</time>
      </trkpt>
      <trkpt lat="43.50614" lon="6.9224">
        <ele>194.80000305176</ele>
        <time>2011-01-21T14:33:21.000Z</time>
      </trkpt>
      <trkpt lat="43.50596" lon="6.92251">
        <ele>196.39999389648</ele>
        <time>2011-01-21T14:33:29.000Z</time>
      </trkpt>
      <trkpt lat="43.50584" lon="6.92267">
        <ele>197.60000610352</ele>
        <time>2011-01-21T14:33:36.000Z</time>
      </trkpt>
      <trkpt lat="43.50576" lon="6.92291">
        <ele>198.19999694824</ele>
        <time>2011-01-21T14:33:44.000Z</time>
      </trkpt>
      <trkpt lat="43.50571" lon="6.92322">
        <ele>200.60000610352</ele>
        <time>2011-01-21T14:33:53.000Z</time>
      </trkpt>
      <trkpt lat="43.50566" lon="6.92354">
        <ele>201.80000305176</ele>
        <time>2011-01-21T14:34:02.000Z</time>
      </trkpt>
      <trkpt lat="43.5056" lon="6.92395">
        <ele>202.39999389648</ele>
        <time>2011-01-21T14:34:11.000Z</time>
      </trkpt>
      <trkpt lat="43.50555" lon="6.92423">
        <ele>203.19999694824</ele>
        <time>2011-01-21T14:34:17.000Z</time>
      </trkpt>
      <trkpt lat="43.50547" lon="6.9245">
        <ele>202.60000610352</ele>
        <time>2011-01-21T14:34:22.000Z</time>
      </trkpt>
      <trkpt lat="43.50545" lon="6.92456">
        <ele>202.60000610352</ele>
        <time>2011-01-21T14:34:23.000Z</time>
      </trkpt>
      <trkpt lat="43.50531" lon="6.92482">
        <ele>201.39999389648</ele>
        <time>2011-01-21T14:34:27.000Z</time>
      </trkpt>
      <trkpt lat="43.50505" lon="6.925">
        <ele>198</ele>
        <time>2011-01-21T14:34:31.000Z</time>
      </trkpt>
      <trkpt lat="43.50497" lon="6.92501">
        <ele>196.19999694824</ele>
        <time>2011-01-21T14:34:32.000Z</time>
      </trkpt>
      <trkpt lat="43.50458" lon="6.92492">
        <ele>189</ele>
        <time>2011-01-21T14:34:37.000Z</time>
      </trkpt>
      <trkpt lat="43.50451" lon="6.92486">
        <ele>187.80000305176</ele>
        <time>2011-01-21T14:34:38.000Z</time>
      </trkpt>
      <trkpt lat="43.50423" lon="6.92461">
        <ele>184.80000305176</ele>
        <time>2011-01-21T14:34:43.000Z</time>
      </trkpt>
      <trkpt lat="43.50408" lon="6.92441">
        <ele>185.80000305176</ele>
        <time>2011-01-21T14:34:48.000Z</time>
      </trkpt>
      <trkpt lat="43.50394" lon="6.92424">
        <ele>189</ele>
        <time>2011-01-21T14:34:56.000Z</time>
      </trkpt>
      <trkpt lat="43.50383" lon="6.92411">
        <ele>190.80000305176</ele>
        <time>2011-01-21T14:35:02.000Z</time>
      </trkpt>
      <trkpt lat="43.50366" lon="6.9239">
        <ele>192</ele>
        <time>2011-01-21T14:35:11.000Z</time>
      </trkpt>
      <trkpt lat="43.50352" lon="6.92369">
        <ele>195</ele>
        <time>2011-01-21T14:35:20.000Z</time>
      </trkpt>
      <trkpt lat="43.50338" lon="6.92347">
        <ele>199.39999389648</ele>
        <time>2011-01-21T14:35:29.000Z</time>
      </trkpt>
      <trkpt lat="43.5033" lon="6.92334">
        <ele>202.39999389648</ele>
        <time>2011-01-21T14:35:35.000Z</time>
      </trkpt>
      <trkpt lat="43.50323" lon="6.92323">
        <ele>201</ele>
        <time>2011-01-21T14:35:40.000Z</time>
      </trkpt>
      <trkpt lat="43.50315" lon="6.92314">
        <ele>200</ele>
        <time>2011-01-21T14:35:45.000Z</time>
      </trkpt>
      <trkpt lat="43.50302" lon="6.92302">
        <ele>199</ele>
        <time>2011-01-21T14:35:53.000Z</time>
      </trkpt>
      <trkpt lat="43.50286" lon="6.92297">
        <ele>200.19999694824</ele>
        <time>2011-01-21T14:36:01.000Z</time>
      </trkpt>
      <trkpt lat="43.50274" lon="6.92299">
        <ele>202.19999694824</ele>
        <time>2011-01-21T14:36:07.000Z</time>
      </trkpt>
      <trkpt lat="43.50263" lon="6.92305">
        <ele>205.39999389648</ele>
        <time>2011-01-21T14:36:14.000Z</time>
      </trkpt>
      <trkpt lat="43.50253" lon="6.9231">
        <ele>208</ele>
        <time>2011-01-21T14:36:20.000Z</time>
      </trkpt>
      <trkpt lat="43.50243" lon="6.92317">
        <ele>210.60000610352</ele>
        <time>2011-01-21T14:36:26.000Z</time>
      </trkpt>
      <trkpt lat="43.50231" lon="6.92324">
        <ele>213.39999389648</ele>
        <time>2011-01-21T14:36:33.000Z</time>
      </trkpt>
      <trkpt lat="43.50229" lon="6.92326">
        <ele>213.80000305176</ele>
        <time>2011-01-21T14:36:34.000Z</time>
      </trkpt>
      <trkpt lat="43.50227" lon="6.92329">
        <ele>214.80000305176</ele>
        <time>2011-01-21T14:36:36.000Z</time>
      </trkpt>
      <trkpt lat="43.50215" lon="6.92337">
        <ele>216.60000610352</ele>
        <time>2011-01-21T14:36:44.000Z</time>
      </trkpt>
      <trkpt lat="43.50202" lon="6.92345">
        <ele>217.39999389648</ele>
        <time>2011-01-21T14:36:52.000Z</time>
      </trkpt>
      <trkpt lat="43.50191" lon="6.92349">
        <ele>218.39999389648</ele>
        <time>2011-01-21T14:36:58.000Z</time>
      </trkpt>
      <trkpt lat="43.5018" lon="6.92357">
        <ele>219.60000610352</ele>
        <time>2011-01-21T14:37:05.000Z</time>
      </trkpt>
      <trkpt lat="43.5017" lon="6.92364">
        <ele>221.19999694824</ele>
        <time>2011-01-21T14:37:12.000Z</time>
      </trkpt>
      <trkpt lat="43.50158" lon="6.92369">
        <ele>223.80000305176</ele>
        <time>2011-01-21T14:37:20.000Z</time>
      </trkpt>
      <trkpt lat="43.50146" lon="6.92376">
        <ele>227</ele>
        <time>2011-01-21T14:37:28.000Z</time>
      </trkpt>
      <trkpt lat="43.50141" lon="6.92386">
        <ele>228.80000305176</ele>
        <time>2011-01-21T14:37:34.000Z</time>
      </trkpt>
      <trkpt lat="43.5014" lon="6.92387">
        <ele>229.19999694824</ele>
        <time>2011-01-21T14:37:35.000Z</time>
      </trkpt>
      <trkpt lat="43.50134" lon="6.92382">
        <ele>230.39999389648</ele>
        <time>2011-01-21T14:37:40.000Z</time>
      </trkpt>
      <trkpt lat="43.50133" lon="6.92381">
        <ele>230.60000610352</ele>
        <time>2011-01-21T14:37:41.000Z</time>
      </trkpt>
      <trkpt lat="43.50121" lon="6.92373">
        <ele>233</ele>
        <time>2011-01-21T14:37:50.000Z</time>
      </trkpt>
      <trkpt lat="43.50108" lon="6.92365">
        <ele>235.19999694824</ele>
        <time>2011-01-21T14:37:59.000Z</time>
      </trkpt>
      <trkpt lat="43.50097" lon="6.92358">
        <ele>236.80000305176</ele>
        <time>2011-01-21T14:38:07.000Z</time>
      </trkpt>
      <trkpt lat="43.50087" lon="6.92352">
        <ele>238</ele>
        <time>2011-01-21T14:38:14.000Z</time>
      </trkpt>
      <trkpt lat="43.50072" lon="6.92345">
        <ele>241.39999389648</ele>
        <time>2011-01-21T14:38:23.000Z</time>
      </trkpt>
      <trkpt lat="43.50056" lon="6.92339">
        <ele>246.39999389648</ele>
        <time>2011-01-21T14:38:32.000Z</time>
      </trkpt>
      <trkpt lat="43.50042" lon="6.92328">
        <ele>249</ele>
        <time>2011-01-21T14:38:40.000Z</time>
      </trkpt>
      <trkpt lat="43.50036" lon="6.92304">
        <ele>246.80000305176</ele>
        <time>2011-01-21T14:38:49.000Z</time>
      </trkpt>
      <trkpt lat="43.50027" lon="6.92288">
        <ele>247</ele>
        <time>2011-01-21T14:38:56.000Z</time>
      </trkpt>
      <trkpt lat="43.50013" lon="6.92269">
        <ele>248.60000610352</ele>
        <time>2011-01-21T14:39:04.000Z</time>
      </trkpt>
      <trkpt lat="43.49999" lon="6.92251">
        <ele>250.19999694824</ele>
        <time>2011-01-21T14:39:11.000Z</time>
      </trkpt>
      <trkpt lat="43.49982" lon="6.92228">
        <ele>247.60000610352</ele>
        <time>2011-01-21T14:39:20.000Z</time>
      </trkpt>
      <trkpt lat="43.49973" lon="6.92206">
        <ele>244.60000610352</ele>
        <time>2011-01-21T14:39:27.000Z</time>
      </trkpt>
      <trkpt lat="43.49969" lon="6.92187">
        <ele>241.80000305176</ele>
        <time>2011-01-21T14:39:33.000Z</time>
      </trkpt>
      <trkpt lat="43.49965" lon="6.92177">
        <ele>240.19999694824</ele>
        <time>2011-01-21T14:39:38.000Z</time>
      </trkpt>
      <trkpt lat="43.49961" lon="6.92178">
        <ele>240.39999389648</ele>
        <time>2011-01-21T14:39:45.000Z</time>
      </trkpt>
      <trkpt lat="43.49962" lon="6.92179">
        <ele>240.39999389648</ele>
        <time>2011-01-21T14:40:02.000Z</time>
      </trkpt>
      <trkpt lat="43.49962" lon="6.9218">
        <ele>240.60000610352</ele>
        <time>2011-01-21T14:40:09.000Z</time>
      </trkpt>
      <trkpt lat="43.49963" lon="6.92179">
        <ele>240.60000610352</ele>
        <time>2011-01-21T14:40:23.000Z</time>
      </trkpt>
      <trkpt lat="43.49963" lon="6.9218">
        <ele>240.80000305176</ele>
        <time>2011-01-21T14:40:30.000Z</time>
      </trkpt>
      <trkpt lat="43.49963" lon="6.92182">
        <ele>241</ele>
        <time>2011-01-21T14:40:49.000Z</time>
      </trkpt>
      <trkpt lat="43.49963" lon="6.92182">
        <ele>241</ele>
        <time>2011-01-21T14:41:12.000Z</time>
      </trkpt>
      <trkpt lat="43.49963" lon="6.92182">
        <ele>241</ele>
        <time>2011-01-21T14:41:23.000Z</time>
      </trkpt>
      <trkpt lat="43.49962" lon="6.92181">
        <ele>240.80000305176</ele>
        <time>2011-01-21T14:41:44.000Z</time>
      </trkpt>
      <trkpt lat="43.49962" lon="6.92181">
        <ele>240.80000305176</ele>
        <time>2011-01-21T14:42:00.000Z</time>
      </trkpt>
      <trkpt lat="43.49961" lon="6.9218">
        <ele>240.60000610352</ele>
        <time>2011-01-21T14:42:12.000Z</time>
      </trkpt>
      <trkpt lat="43.49946" lon="6.92185">
        <ele>241.19999694824</ele>
        <time>2011-01-21T14:42:18.000Z</time>
      </trkpt>
      <trkpt lat="43.49929" lon="6.92198">
        <ele>243.39999389648</ele>
        <time>2011-01-21T14:42:22.000Z</time>
      </trkpt>
      <trkpt lat="43.49898" lon="6.92216">
        <ele>243.80000305176</ele>
        <time>2011-01-21T14:42:28.000Z</time>
      </trkpt>
      <trkpt lat="43.49883" lon="6.92228">
        <ele>242.80000305176</ele>
        <time>2011-01-21T14:42:31.000Z</time>
      </trkpt>
      <trkpt lat="43.49875" lon="6.92233">
        <ele>241.60000610352</ele>
        <time>2011-01-21T14:42:33.000Z</time>
      </trkpt>
      <trkpt lat="43.49859" lon="6.92238">
        <ele>238.80000305176</ele>
        <time>2011-01-21T14:42:38.000Z</time>
      </trkpt>
      <trkpt lat="43.49842" lon="6.92228">
        <ele>234.60000610352</ele>
        <time>2011-01-21T14:42:43.000Z</time>
      </trkpt>
      <trkpt lat="43.49838" lon="6.92226">
        <ele>233.80000305176</ele>
        <time>2011-01-21T14:42:44.000Z</time>
      </trkpt>
      <trkpt lat="43.49816" lon="6.9221">
        <ele>229.39999389648</ele>
        <time>2011-01-21T14:42:50.000Z</time>
      </trkpt>
      <trkpt lat="43.49807" lon="6.92186">
        <ele>228.39999389648</ele>
        <time>2011-01-21T14:42:57.000Z</time>
      </trkpt>
      <trkpt lat="43.49806" lon="6.92186">
        <ele>228.39999389648</ele>
        <time>2011-01-21T14:43:05.000Z</time>
      </trkpt>
      <trkpt lat="43.49807" lon="6.92186">
        <ele>228.39999389648</ele>
        <time>2011-01-21T14:43:20.000Z</time>
      </trkpt>
      <trkpt lat="43.49807" lon="6.92189">
        <ele>228.39999389648</ele>
        <time>2011-01-21T14:43:38.000Z</time>
      </trkpt>
      <trkpt lat="43.49812" lon="6.92198">
        <ele>228.80000305176</ele>
        <time>2011-01-21T14:43:45.000Z</time>
      </trkpt>
      <trkpt lat="43.49815" lon="6.92212">
        <ele>229</ele>
        <time>2011-01-21T14:43:52.000Z</time>
      </trkpt>
      <trkpt lat="43.49811" lon="6.9222">
        <ele>228.39999389648</ele>
        <time>2011-01-21T14:43:57.000Z</time>
      </trkpt>
      <trkpt lat="43.49802" lon="6.92224">
        <ele>226.60000610352</ele>
        <time>2011-01-21T14:44:03.000Z</time>
      </trkpt>
      <trkpt lat="43.49795" lon="6.92226">
        <ele>225.19999694824</ele>
        <time>2011-01-21T14:44:10.000Z</time>
      </trkpt>
      <trkpt lat="43.49795" lon="6.92225">
        <ele>225.19999694824</ele>
        <time>2011-01-21T14:44:17.000Z</time>
      </trkpt>
      <trkpt lat="43.49796" lon="6.92226">
        <ele>225.19999694824</ele>
        <time>2011-01-21T14:44:25.000Z</time>
      </trkpt>
      <trkpt lat="43.49798" lon="6.92227">
        <ele>225.60000610352</ele>
        <time>2011-01-21T14:44:27.000Z</time>
      </trkpt>
      <trkpt lat="43.49811" lon="6.92221">
        <ele>228.39999389648</ele>
        <time>2011-01-21T14:44:32.000Z</time>
      </trkpt>
      <trkpt lat="43.49822" lon="6.92219">
        <ele>230.39999389648</ele>
        <time>2011-01-21T14:44:36.000Z</time>
      </trkpt>
      <trkpt lat="43.49831" lon="6.92224">
        <ele>232.19999694824</ele>
        <time>2011-01-21T14:44:41.000Z</time>
      </trkpt>
      <trkpt lat="43.49831" lon="6.92225">
        <ele>232.19999694824</ele>
        <time>2011-01-21T14:44:50.000Z</time>
      </trkpt>
      <trkpt lat="43.49834" lon="6.92231">
        <ele>233.19999694824</ele>
        <time>2011-01-21T14:44:56.000Z</time>
      </trkpt>
      <trkpt lat="43.49843" lon="6.92247">
        <ele>236</ele>
        <time>2011-01-21T14:45:02.000Z</time>
      </trkpt>
      <trkpt lat="43.4985" lon="6.92267">
        <ele>236.60000610352</ele>
        <time>2011-01-21T14:45:08.000Z</time>
      </trkpt>
      <trkpt lat="43.49857" lon="6.92295">
        <ele>237</ele>
        <time>2011-01-21T14:45:12.000Z</time>
      </trkpt>
      <trkpt lat="43.49861" lon="6.92312">
        <ele>238</ele>
        <time>2011-01-21T14:45:14.000Z</time>
      </trkpt>
      <trkpt lat="43.49866" lon="6.92344">
        <ele>238</ele>
        <time>2011-01-21T14:45:18.000Z</time>
      </trkpt>
      <trkpt lat="43.49874" lon="6.92383">
        <ele>238.19999694824</ele>
        <time>2011-01-21T14:45:24.000Z</time>
      </trkpt>
      <trkpt lat="43.49877" lon="6.9239">
        <ele>238.80000305176</ele>
        <time>2011-01-21T14:45:25.000Z</time>
      </trkpt>
      <trkpt lat="43.49885" lon="6.92409">
        <ele>241.60000610352</ele>
        <time>2011-01-21T14:45:28.000Z</time>
      </trkpt>
      <trkpt lat="43.49888" lon="6.92422">
        <ele>242</ele>
        <time>2011-01-21T14:45:30.000Z</time>
      </trkpt>
      <trkpt lat="43.4989" lon="6.92434">
        <ele>241.39999389648</ele>
        <time>2011-01-21T14:45:32.000Z</time>
      </trkpt>
      <trkpt lat="43.49891" lon="6.92447">
        <ele>240</ele>
        <time>2011-01-21T14:45:34.000Z</time>
      </trkpt>
      <trkpt lat="43.49894" lon="6.92477">
        <ele>237.39999389648</ele>
        <time>2011-01-21T14:45:38.000Z</time>
      </trkpt>
      <trkpt lat="43.49897" lon="6.925">
        <ele>236.39999389648</ele>
        <time>2011-01-21T14:45:41.000Z</time>
      </trkpt>
      <trkpt lat="43.49905" lon="6.92531">
        <ele>235.60000610352</ele>
        <time>2011-01-21T14:45:45.000Z</time>
      </trkpt>
      <trkpt lat="43.49908" lon="6.92555">
        <ele>233.19999694824</ele>
        <time>2011-01-21T14:45:48.000Z</time>
      </trkpt>
      <trkpt lat="43.49918" lon="6.92593">
        <ele>231.60000610352</ele>
        <time>2011-01-21T14:45:53.000Z</time>
      </trkpt>
      <trkpt lat="43.49926" lon="6.92627">
        <ele>227.80000305176</ele>
        <time>2011-01-21T14:45:58.000Z</time>
      </trkpt>
      <trkpt lat="43.4993" lon="6.92639">
        <ele>227.60000610352</ele>
        <time>2011-01-21T14:46:02.000Z</time>
      </trkpt>
      <trkpt lat="43.49932" lon="6.92641">
        <ele>228</ele>
        <time>2011-01-21T14:46:04.000Z</time>
      </trkpt>
      <trkpt lat="43.49935" lon="6.92646">
        <ele>228.39999389648</ele>
        <time>2011-01-21T14:46:08.000Z</time>
      </trkpt>
      <trkpt lat="43.49941" lon="6.92669">
        <ele>226.19999694824</ele>
        <time>2011-01-21T14:46:14.000Z</time>
      </trkpt>
      <trkpt lat="43.49949" lon="6.9269">
        <ele>223.60000610352</ele>
        <time>2011-01-21T14:46:18.000Z</time>
      </trkpt>
      <trkpt lat="43.49958" lon="6.92702">
        <ele>224.19999694824</ele>
        <time>2011-01-21T14:46:21.000Z</time>
      </trkpt>
      <trkpt lat="43.49965" lon="6.92705">
        <ele>226.19999694824</ele>
        <time>2011-01-21T14:46:24.000Z</time>
      </trkpt>
      <trkpt lat="43.49977" lon="6.92721">
        <ele>227.19999694824</ele>
        <time>2011-01-21T14:46:30.000Z</time>
      </trkpt>
      <trkpt lat="43.49983" lon="6.92728">
        <ele>227.39999389648</ele>
        <time>2011-01-21T14:46:34.000Z</time>
      </trkpt>
      <trkpt lat="43.49984" lon="6.92731">
        <ele>227</ele>
        <time>2011-01-21T14:46:35.000Z</time>
      </trkpt>
      <trkpt lat="43.49994" lon="6.92752">
        <ele>224.60000610352</ele>
        <time>2011-01-21T14:46:42.000Z</time>
      </trkpt>
      <trkpt lat="43.50001" lon="6.92776">
        <ele>221.39999389648</ele>
        <time>2011-01-21T14:46:47.000Z</time>
      </trkpt>
      <trkpt lat="43.50005" lon="6.92798">
        <ele>217.19999694824</ele>
        <time>2011-01-21T14:46:51.000Z</time>
      </trkpt>
      <trkpt lat="43.50009" lon="6.92809">
        <ele>216</ele>
        <time>2011-01-21T14:46:53.000Z</time>
      </trkpt>
      <trkpt lat="43.50013" lon="6.92828">
        <ele>213</ele>
        <time>2011-01-21T14:46:57.000Z</time>
      </trkpt>
      <trkpt lat="43.50018" lon="6.92848">
        <ele>212</ele>
        <time>2011-01-21T14:47:01.000Z</time>
      </trkpt>
      <trkpt lat="43.50018" lon="6.9287">
        <ele>209.80000305176</ele>
        <time>2011-01-21T14:47:05.000Z</time>
      </trkpt>
      <trkpt lat="43.50019" lon="6.9289">
        <ele>208.19999694824</ele>
        <time>2011-01-21T14:47:10.000Z</time>
      </trkpt>
      <trkpt lat="43.5002" lon="6.92916">
        <ele>206</ele>
        <time>2011-01-21T14:47:15.000Z</time>
      </trkpt>
      <trkpt lat="43.50019" lon="6.92934">
        <ele>204</ele>
        <time>2011-01-21T14:47:19.000Z</time>
      </trkpt>
      <trkpt lat="43.50018" lon="6.92961">
        <ele>201</ele>
        <time>2011-01-21T14:47:23.000Z</time>
      </trkpt>
      <trkpt lat="43.5002" lon="6.92974">
        <ele>200.60000610352</ele>
        <time>2011-01-21T14:47:26.000Z</time>
      </trkpt>
      <trkpt lat="43.5002" lon="6.9299">
        <ele>199.60000610352</ele>
        <time>2011-01-21T14:47:29.000Z</time>
      </trkpt>
      <trkpt lat="43.50026" lon="6.93023">
        <ele>198.19999694824</ele>
        <time>2011-01-21T14:47:35.000Z</time>
      </trkpt>
      <trkpt lat="43.5003" lon="6.93042">
        <ele>197.19999694824</ele>
        <time>2011-01-21T14:47:38.000Z</time>
      </trkpt>
      <trkpt lat="43.50034" lon="6.93067">
        <ele>195.80000305176</ele>
        <time>2011-01-21T14:47:42.000Z</time>
      </trkpt>
      <trkpt lat="43.50039" lon="6.9309">
        <ele>194</ele>
        <time>2011-01-21T14:47:46.000Z</time>
      </trkpt>
      <trkpt lat="43.50051" lon="6.93117">
        <ele>193</ele>
        <time>2011-01-21T14:47:53.000Z</time>
      </trkpt>
      <trkpt lat="43.5006" lon="6.93141">
        <ele>190.39999389648</ele>
        <time>2011-01-21T14:47:58.000Z</time>
      </trkpt>
      <trkpt lat="43.50066" lon="6.93159">
        <ele>188.19999694824</ele>
        <time>2011-01-21T14:48:02.000Z</time>
      </trkpt>
      <trkpt lat="43.50084" lon="6.9317">
        <ele>191</ele>
        <time>2011-01-21T14:48:07.000Z</time>
      </trkpt>
      <trkpt lat="43.50086" lon="6.93165">
        <ele>192.39999389648</ele>
        <time>2011-01-21T14:48:10.000Z</time>
      </trkpt>
      <trkpt lat="43.50087" lon="6.93163">
        <ele>192.60000610352</ele>
        <time>2011-01-21T14:48:11.000Z</time>
      </trkpt>
      <trkpt lat="43.50091" lon="6.93163">
        <ele>192.60000610352</ele>
        <time>2011-01-21T14:48:17.000Z</time>
      </trkpt>
      <trkpt lat="43.50093" lon="6.93163">
        <ele>192.39999389648</ele>
        <time>2011-01-21T14:48:22.000Z</time>
      </trkpt>
      <trkpt lat="43.50095" lon="6.93162">
        <ele>192.39999389648</ele>
        <time>2011-01-21T14:48:24.000Z</time>
      </trkpt>
      <trkpt lat="43.50109" lon="6.93165">
        <ele>191</ele>
        <time>2011-01-21T14:48:31.000Z</time>
      </trkpt>
      <trkpt lat="43.50121" lon="6.93169">
        <ele>189.60000610352</ele>
        <time>2011-01-21T14:48:35.000Z</time>
      </trkpt>
      <trkpt lat="43.50125" lon="6.9317">
        <ele>189.19999694824</ele>
        <time>2011-01-21T14:48:39.000Z</time>
      </trkpt>
      <trkpt lat="43.50125" lon="6.93172">
        <ele>188.80000305176</ele>
        <time>2011-01-21T14:48:50.000Z</time>
      </trkpt>
      <trkpt lat="43.50125" lon="6.93171">
        <ele>189.19999694824</ele>
        <time>2011-01-21T14:49:15.000Z</time>
      </trkpt>
      <trkpt lat="43.50125" lon="6.9317">
        <ele>189.19999694824</ele>
        <time>2011-01-21T14:49:30.000Z</time>
      </trkpt>
      <trkpt lat="43.50126" lon="6.9317">
        <ele>189.19999694824</ele>
        <time>2011-01-21T14:49:44.000Z</time>
      </trkpt>
      <trkpt lat="43.50126" lon="6.9317">
        <ele>189.19999694824</ele>
        <time>2011-01-21T14:49:56.000Z</time>
      </trkpt>
      <trkpt lat="43.50126" lon="6.9317">
        <ele>189.19999694824</ele>
        <time>2011-01-21T14:50:15.000Z</time>
      </trkpt>
      <trkpt lat="43.50128" lon="6.93171">
        <ele>189</ele>
        <time>2011-01-21T14:50:25.000Z</time>
      </trkpt>
      <trkpt lat="43.50127" lon="6.93171">
        <ele>189</ele>
        <time>2011-01-21T14:50:34.000Z</time>
      </trkpt>
      <trkpt lat="43.50126" lon="6.93172">
        <ele>188.80000305176</ele>
        <time>2011-01-21T14:50:55.000Z</time>
      </trkpt>
      <trkpt lat="43.5013" lon="6.93173">
        <ele>188.39999389648</ele>
        <time>2011-01-21T14:51:06.000Z</time>
      </trkpt>
      <trkpt lat="43.50136" lon="6.93173">
        <ele>188.19999694824</ele>
        <time>2011-01-21T14:51:09.000Z</time>
      </trkpt>
      <trkpt lat="43.50139" lon="6.93184">
        <ele>186.19999694824</ele>
        <time>2011-01-21T14:51:13.000Z</time>
      </trkpt>
      <trkpt lat="43.50143" lon="6.93196">
        <ele>184.19999694824</ele>
        <time>2011-01-21T14:51:18.000Z</time>
      </trkpt>
      <trkpt lat="43.50151" lon="6.93198">
        <ele>183.80000305176</ele>
        <time>2011-01-21T14:51:22.000Z</time>
      </trkpt>
      <trkpt lat="43.50155" lon="6.93213">
        <ele>181.60000610352</ele>
        <time>2011-01-21T14:51:26.000Z</time>
      </trkpt>
      <trkpt lat="43.50157" lon="6.93216">
        <ele>181.19999694824</ele>
        <time>2011-01-21T14:51:27.000Z</time>
      </trkpt>
      <trkpt lat="43.50171" lon="6.93238">
        <ele>177</ele>
        <time>2011-01-21T14:51:32.000Z</time>
      </trkpt>
      <trkpt lat="43.50181" lon="6.93254">
        <ele>171</ele>
        <time>2011-01-21T14:51:36.000Z</time>
      </trkpt>
      <trkpt lat="43.50185" lon="6.9326">
        <ele>168.60000610352</ele>
        <time>2011-01-21T14:51:38.000Z</time>
      </trkpt>
      <trkpt lat="43.5019" lon="6.93271">
        <ele>165.19999694824</ele>
        <time>2011-01-21T14:51:42.000Z</time>
      </trkpt>
      <trkpt lat="43.50198" lon="6.9328">
        <ele>161.60000610352</ele>
        <time>2011-01-21T14:51:46.000Z</time>
      </trkpt>
      <trkpt lat="43.50206" lon="6.93293">
        <ele>158.19999694824</ele>
        <time>2011-01-21T14:51:51.000Z</time>
      </trkpt>
      <trkpt lat="43.50213" lon="6.93296">
        <ele>156.19999694824</ele>
        <time>2011-01-21T14:51:55.000Z</time>
      </trkpt>
      <trkpt lat="43.50219" lon="6.933">
        <ele>154.80000305176</ele>
        <time>2011-01-21T14:51:59.000Z</time>
      </trkpt>
      <trkpt lat="43.50221" lon="6.93305">
        <ele>154</ele>
        <time>2011-01-21T14:52:03.000Z</time>
      </trkpt>
      <trkpt lat="43.50225" lon="6.93311">
        <ele>153</ele>
        <time>2011-01-21T14:52:07.000Z</time>
      </trkpt>
      <trkpt lat="43.50227" lon="6.93309">
        <ele>152.80000305176</ele>
        <time>2011-01-21T14:52:08.000Z</time>
      </trkpt>
      <trkpt lat="43.50232" lon="6.93306">
        <ele>152.19999694824</ele>
        <time>2011-01-21T14:52:10.000Z</time>
      </trkpt>
      <trkpt lat="43.50236" lon="6.93315">
        <ele>151.39999389648</ele>
        <time>2011-01-21T14:52:14.000Z</time>
      </trkpt>
      <trkpt lat="43.50232" lon="6.93328">
        <ele>151.39999389648</ele>
        <time>2011-01-21T14:52:18.000Z</time>
      </trkpt>
      <trkpt lat="43.50231" lon="6.9333">
        <ele>151.39999389648</ele>
        <time>2011-01-21T14:52:27.000Z</time>
      </trkpt>
      <trkpt lat="43.5023" lon="6.93329">
        <ele>151.60000610352</ele>
        <time>2011-01-21T14:52:39.000Z</time>
      </trkpt>
      <trkpt lat="43.5023" lon="6.93329">
        <ele>151.39999389648</ele>
        <time>2011-01-21T14:52:47.000Z</time>
      </trkpt>
      <trkpt lat="43.50229" lon="6.93332">
        <ele>151.39999389648</ele>
        <time>2011-01-21T14:53:00.000Z</time>
      </trkpt>
      <trkpt lat="43.50229" lon="6.93331">
        <ele>151.60000610352</ele>
        <time>2011-01-21T14:53:12.000Z</time>
      </trkpt>
      <trkpt lat="43.50229" lon="6.93327">
        <ele>151.80000305176</ele>
        <time>2011-01-21T14:53:44.000Z</time>
      </trkpt>
      <trkpt lat="43.50229" lon="6.93329">
        <ele>151.60000610352</ele>
        <time>2011-01-21T14:54:02.000Z</time>
      </trkpt>
      <trkpt lat="43.50223" lon="6.93336">
        <ele>151.19999694824</ele>
        <time>2011-01-21T14:54:06.000Z</time>
      </trkpt>
      <trkpt lat="43.50218" lon="6.93336">
        <ele>151.39999389648</ele>
        <time>2011-01-21T14:54:08.000Z</time>
      </trkpt>
      <trkpt lat="43.5021" lon="6.93345">
        <ele>149.80000305176</ele>
        <time>2011-01-21T14:54:13.000Z</time>
      </trkpt>
      <trkpt lat="43.50207" lon="6.93345">
        <ele>149.80000305176</ele>
        <time>2011-01-21T14:54:15.000Z</time>
      </trkpt>
      <trkpt lat="43.50199" lon="6.93341">
        <ele>151.39999389648</ele>
        <time>2011-01-21T14:54:20.000Z</time>
      </trkpt>
      <trkpt lat="43.5019" lon="6.93345">
        <ele>151</ele>
        <time>2011-01-21T14:54:25.000Z</time>
      </trkpt>
      <trkpt lat="43.50175" lon="6.93352">
        <ele>149.80000305176</ele>
        <time>2011-01-21T14:54:30.000Z</time>
      </trkpt>
      <trkpt lat="43.50173" lon="6.93372">
        <ele>144.60000610352</ele>
        <time>2011-01-21T14:54:35.000Z</time>
      </trkpt>
      <trkpt lat="43.50168" lon="6.93381">
        <ele>142</ele>
        <time>2011-01-21T14:54:38.000Z</time>
      </trkpt>
      <trkpt lat="43.50166" lon="6.93383">
        <ele>141.60000610352</ele>
        <time>2011-01-21T14:54:46.000Z</time>
      </trkpt>
      <trkpt lat="43.50167" lon="6.93381">
        <ele>142.19999694824</ele>
        <time>2011-01-21T14:55:04.000Z</time>
      </trkpt>
      <trkpt lat="43.50166" lon="6.93379">
        <ele>142.60000610352</ele>
        <time>2011-01-21T14:55:07.000Z</time>
      </trkpt>
      <trkpt lat="43.50155" lon="6.93363">
        <ele>144.80000305176</ele>
        <time>2011-01-21T14:55:14.000Z</time>
      </trkpt>
      <trkpt lat="43.50143" lon="6.93348">
        <ele>147</ele>
        <time>2011-01-21T14:55:20.000Z</time>
      </trkpt>
      <trkpt lat="43.50127" lon="6.93326">
        <ele>151</ele>
        <time>2011-01-21T14:55:26.000Z</time>
      </trkpt>
      <trkpt lat="43.50116" lon="6.93306">
        <ele>155</ele>
        <time>2011-01-21T14:55:30.000Z</time>
      </trkpt>
      <trkpt lat="43.50112" lon="6.93304">
        <ele>155.19999694824</ele>
        <time>2011-01-21T14:55:31.000Z</time>
      </trkpt>
      <trkpt lat="43.50094" lon="6.93303">
        <ele>153</ele>
        <time>2011-01-21T14:55:36.000Z</time>
      </trkpt>
      <trkpt lat="43.50076" lon="6.93302">
        <ele>151</ele>
        <time>2011-01-21T14:55:42.000Z</time>
      </trkpt>
      <trkpt lat="43.50053" lon="6.933">
        <ele>148.60000610352</ele>
        <time>2011-01-21T14:55:50.000Z</time>
      </trkpt>
      <trkpt lat="43.5004" lon="6.93292">
        <ele>149</ele>
        <time>2011-01-21T14:55:54.000Z</time>
      </trkpt>
      <trkpt lat="43.50025" lon="6.93287">
        <ele>148.19999694824</ele>
        <time>2011-01-21T14:55:58.000Z</time>
      </trkpt>
      <trkpt lat="43.5001" lon="6.93281">
        <ele>147.60000610352</ele>
        <time>2011-01-21T14:56:03.000Z</time>
      </trkpt>
      <trkpt lat="43.49996" lon="6.93277">
        <ele>146</ele>
        <time>2011-01-21T14:56:09.000Z</time>
      </trkpt>
      <trkpt lat="43.49985" lon="6.93273">
        <ele>145</ele>
        <time>2011-01-21T14:56:14.000Z</time>
      </trkpt>
      <trkpt lat="43.49977" lon="6.93258">
        <ele>146.19999694824</ele>
        <time>2011-01-21T14:56:20.000Z</time>
      </trkpt>
      <trkpt lat="43.49972" lon="6.93247">
        <ele>147</ele>
        <time>2011-01-21T14:56:25.000Z</time>
      </trkpt>
      <trkpt lat="43.49977" lon="6.93235">
        <ele>149.19999694824</ele>
        <time>2011-01-21T14:56:30.000Z</time>
      </trkpt>
      <trkpt lat="43.49977" lon="6.93233">
        <ele>149.39999389648</ele>
        <time>2011-01-21T14:56:31.000Z</time>
      </trkpt>
      <trkpt lat="43.49976" lon="6.93213">
        <ele>150.60000610352</ele>
        <time>2011-01-21T14:56:37.000Z</time>
      </trkpt>
      <trkpt lat="43.49974" lon="6.93192">
        <ele>151.60000610352</ele>
        <time>2011-01-21T14:56:41.000Z</time>
      </trkpt>
      <trkpt lat="43.49969" lon="6.93173">
        <ele>151</ele>
        <time>2011-01-21T14:56:45.000Z</time>
      </trkpt>
      <trkpt lat="43.4996" lon="6.93152">
        <ele>149.19999694824</ele>
        <time>2011-01-21T14:56:50.000Z</time>
      </trkpt>
      <trkpt lat="43.49953" lon="6.93133">
        <ele>148.19999694824</ele>
        <time>2011-01-21T14:56:54.000Z</time>
      </trkpt>
      <trkpt lat="43.49937" lon="6.93111">
        <ele>142.80000305176</ele>
        <time>2011-01-21T14:57:00.000Z</time>
      </trkpt>
      <trkpt lat="43.49929" lon="6.93095">
        <ele>140.39999389648</ele>
        <time>2011-01-21T14:57:03.000Z</time>
      </trkpt>
      <trkpt lat="43.49924" lon="6.93073">
        <ele>139.60000610352</ele>
        <time>2011-01-21T14:57:07.000Z</time>
      </trkpt>
      <trkpt lat="43.49916" lon="6.93053">
        <ele>137.19999694824</ele>
        <time>2011-01-21T14:57:11.000Z</time>
      </trkpt>
      <trkpt lat="43.49911" lon="6.93028">
        <ele>137.39999389648</ele>
        <time>2011-01-21T14:57:15.000Z</time>
      </trkpt>
      <trkpt lat="43.49904" lon="6.93003">
        <ele>137.19999694824</ele>
        <time>2011-01-21T14:57:19.000Z</time>
      </trkpt>
      <trkpt lat="43.49903" lon="6.92988">
        <ele>138.39999389648</ele>
        <time>2011-01-21T14:57:21.000Z</time>
      </trkpt>
      <trkpt lat="43.49896" lon="6.92951">
        <ele>140.80000305176</ele>
        <time>2011-01-21T14:57:27.000Z</time>
      </trkpt>
      <trkpt lat="43.4989" lon="6.92937">
        <ele>140.19999694824</ele>
        <time>2011-01-21T14:57:31.000Z</time>
      </trkpt>
      <trkpt lat="43.49874" lon="6.92916">
        <ele>137.60000610352</ele>
        <time>2011-01-21T14:57:37.000Z</time>
      </trkpt>
      <trkpt lat="43.49863" lon="6.92903">
        <ele>136.19999694824</ele>
        <time>2011-01-21T14:57:42.000Z</time>
      </trkpt>
      <trkpt lat="43.4985" lon="6.92882">
        <ele>135.19999694824</ele>
        <time>2011-01-21T14:57:49.000Z</time>
      </trkpt>
      <trkpt lat="43.49842" lon="6.92862">
        <ele>135.39999389648</ele>
        <time>2011-01-21T14:57:54.000Z</time>
      </trkpt>
      <trkpt lat="43.49837" lon="6.92839">
        <ele>137.39999389648</ele>
        <time>2011-01-21T14:57:59.000Z</time>
      </trkpt>
      <trkpt lat="43.49828" lon="6.92816">
        <ele>139</ele>
        <time>2011-01-21T14:58:04.000Z</time>
      </trkpt>
      <trkpt lat="43.49814" lon="6.92793">
        <ele>139.60000610352</ele>
        <time>2011-01-21T14:58:09.000Z</time>
      </trkpt>
      <trkpt lat="43.49802" lon="6.92773">
        <ele>140.19999694824</ele>
        <time>2011-01-21T14:58:14.000Z</time>
      </trkpt>
      <trkpt lat="43.4979" lon="6.92755">
        <ele>140</ele>
        <time>2011-01-21T14:58:19.000Z</time>
      </trkpt>
      <trkpt lat="43.49782" lon="6.92746">
        <ele>139.19999694824</ele>
        <time>2011-01-21T14:58:23.000Z</time>
      </trkpt>
      <trkpt lat="43.49775" lon="6.92734">
        <ele>139.39999389648</ele>
        <time>2011-01-21T14:58:28.000Z</time>
      </trkpt>
      <trkpt lat="43.4977" lon="6.9272">
        <ele>140.19999694824</ele>
        <time>2011-01-21T14:58:33.000Z</time>
      </trkpt>
      <trkpt lat="43.49768" lon="6.92701">
        <ele>142.80000305176</ele>
        <time>2011-01-21T14:58:40.000Z</time>
      </trkpt>
      <trkpt lat="43.49767" lon="6.92682">
        <ele>145.80000305176</ele>
        <time>2011-01-21T14:58:46.000Z</time>
      </trkpt>
      <trkpt lat="43.49758" lon="6.9266">
        <ele>146.39999389648</ele>
        <time>2011-01-21T14:58:53.000Z</time>
      </trkpt>
      <trkpt lat="43.49751" lon="6.92643">
        <ele>146.60000610352</ele>
        <time>2011-01-21T14:58:57.000Z</time>
      </trkpt>
      <trkpt lat="43.49746" lon="6.92621">
        <ele>148.80000305176</ele>
        <time>2011-01-21T14:59:01.000Z</time>
      </trkpt>
      <trkpt lat="43.49736" lon="6.92623">
        <ele>146.60000610352</ele>
        <time>2011-01-21T14:59:05.000Z</time>
      </trkpt>
      <trkpt lat="43.49733" lon="6.92626">
        <ele>145.80000305176</ele>
        <time>2011-01-21T14:59:06.000Z</time>
      </trkpt>
      <trkpt lat="43.49716" lon="6.92633">
        <ele>141.80000305176</ele>
        <time>2011-01-21T14:59:11.000Z</time>
      </trkpt>
      <trkpt lat="43.49707" lon="6.92625">
        <ele>141</ele>
        <time>2011-01-21T14:59:15.000Z</time>
      </trkpt>
      <trkpt lat="43.49699" lon="6.9261">
        <ele>140.80000305176</ele>
        <time>2011-01-21T14:59:20.000Z</time>
      </trkpt>
      <trkpt lat="43.49695" lon="6.92602">
        <ele>140.60000610352</ele>
        <time>2011-01-21T14:59:22.000Z</time>
      </trkpt>
      <trkpt lat="43.49672" lon="6.9259">
        <ele>136.60000610352</ele>
        <time>2011-01-21T14:59:29.000Z</time>
      </trkpt>
      <trkpt lat="43.49661" lon="6.92573">
        <ele>136.19999694824</ele>
        <time>2011-01-21T14:59:34.000Z</time>
      </trkpt>
      <trkpt lat="43.49647" lon="6.92547">
        <ele>137</ele>
        <time>2011-01-21T14:59:41.000Z</time>
      </trkpt>
      <trkpt lat="43.49635" lon="6.9252">
        <ele>138.19999694824</ele>
        <time>2011-01-21T14:59:47.000Z</time>
      </trkpt>
      <trkpt lat="43.49623" lon="6.92481">
        <ele>140.19999694824</ele>
        <time>2011-01-21T14:59:53.000Z</time>
      </trkpt>
      <trkpt lat="43.49619" lon="6.92468">
        <ele>140.80000305176</ele>
        <time>2011-01-21T14:59:55.000Z</time>
      </trkpt>
      <trkpt lat="43.49618" lon="6.92446">
        <ele>142.60000610352</ele>
        <time>2011-01-21T15:00:00.000Z</time>
      </trkpt>
      <trkpt lat="43.49615" lon="6.92439">
        <ele>143</ele>
        <time>2011-01-21T15:00:04.000Z</time>
      </trkpt>
      <trkpt lat="43.49608" lon="6.92435">
        <ele>143</ele>
        <time>2011-01-21T15:00:08.000Z</time>
      </trkpt>
      <trkpt lat="43.49598" lon="6.9244">
        <ele>142</ele>
        <time>2011-01-21T15:00:13.000Z</time>
      </trkpt>
      <trkpt lat="43.49591" lon="6.92443">
        <ele>141.19999694824</ele>
        <time>2011-01-21T15:00:17.000Z</time>
      </trkpt>
      <trkpt lat="43.49586" lon="6.9245">
        <ele>140.19999694824</ele>
        <time>2011-01-21T15:00:20.000Z</time>
      </trkpt>
      <trkpt lat="43.49585" lon="6.92463">
        <ele>138.39999389648</ele>
        <time>2011-01-21T15:00:23.000Z</time>
      </trkpt>
      <trkpt lat="43.49582" lon="6.92493">
        <ele>135.19999694824</ele>
        <time>2011-01-21T15:00:29.000Z</time>
      </trkpt>
      <trkpt lat="43.49577" lon="6.92509">
        <ele>135</ele>
        <time>2011-01-21T15:00:33.000Z</time>
      </trkpt>
      <trkpt lat="43.49573" lon="6.92529">
        <ele>133.80000305176</ele>
        <time>2011-01-21T15:00:38.000Z</time>
      </trkpt>
      <trkpt lat="43.49568" lon="6.92543">
        <ele>133.39999389648</ele>
        <time>2011-01-21T15:00:43.000Z</time>
      </trkpt>
      <trkpt lat="43.49563" lon="6.92558">
        <ele>133</ele>
        <time>2011-01-21T15:00:49.000Z</time>
      </trkpt>
      <trkpt lat="43.49559" lon="6.92574">
        <ele>131.80000305176</ele>
        <time>2011-01-21T15:00:55.000Z</time>
      </trkpt>
      <trkpt lat="43.49558" lon="6.9258">
        <ele>131.60000610352</ele>
        <time>2011-01-21T15:00:57.000Z</time>
      </trkpt>
      <trkpt lat="43.49545" lon="6.926">
        <ele>131.39999389648</ele>
        <time>2011-01-21T15:01:04.000Z</time>
      </trkpt>
      <trkpt lat="43.49529" lon="6.92619">
        <ele>131.39999389648</ele>
        <time>2011-01-21T15:01:11.000Z</time>
      </trkpt>
      <trkpt lat="43.49517" lon="6.92634">
        <ele>131</ele>
        <time>2011-01-21T15:01:15.000Z</time>
      </trkpt>
      <trkpt lat="43.49508" lon="6.92649">
        <ele>129.80000305176</ele>
        <time>2011-01-21T15:01:19.000Z</time>
      </trkpt>
      <trkpt lat="43.49501" lon="6.92673">
        <ele>127.19999694824</ele>
        <time>2011-01-21T15:01:24.000Z</time>
      </trkpt>
      <trkpt lat="43.49497" lon="6.92697">
        <ele>124.40000152588</ele>
        <time>2011-01-21T15:01:28.000Z</time>
      </trkpt>
      <trkpt lat="43.49498" lon="6.92713">
        <ele>123</ele>
        <time>2011-01-21T15:01:30.000Z</time>
      </trkpt>
      <trkpt lat="43.49491" lon="6.92759">
        <ele>119</ele>
        <time>2011-01-21T15:01:35.000Z</time>
      </trkpt>
      <trkpt lat="43.49491" lon="6.92774">
        <ele>119.59999847412</ele>
        <time>2011-01-21T15:01:38.000Z</time>
      </trkpt>
      <trkpt lat="43.49491" lon="6.92775">
        <ele>119.59999847412</ele>
        <time>2011-01-21T15:01:42.000Z</time>
      </trkpt>
      <trkpt lat="43.4949" lon="6.92775">
        <ele>119.59999847412</ele>
        <time>2011-01-21T15:01:51.000Z</time>
      </trkpt>
      <trkpt lat="43.4949" lon="6.92774">
        <ele>119.59999847412</ele>
        <time>2011-01-21T15:01:59.000Z</time>
      </trkpt>
      <trkpt lat="43.49491" lon="6.92774">
        <ele>119.59999847412</ele>
        <time>2011-01-21T15:02:08.000Z</time>
      </trkpt>
      <trkpt lat="43.49491" lon="6.92773">
        <ele>119.59999847412</ele>
        <time>2011-01-21T15:02:17.000Z</time>
      </trkpt>
      <trkpt lat="43.49492" lon="6.92774">
        <ele>119.59999847412</ele>
        <time>2011-01-21T15:02:38.000Z</time>
      </trkpt>
      <trkpt lat="43.49491" lon="6.92773">
        <ele>119.59999847412</ele>
        <time>2011-01-21T15:02:56.000Z</time>
      </trkpt>
      <trkpt lat="43.49491" lon="6.92774">
        <ele>119.59999847412</ele>
        <time>2011-01-21T15:03:03.000Z</time>
      </trkpt>
      <trkpt lat="43.49491" lon="6.92774">
        <ele>119.59999847412</ele>
        <time>2011-01-21T15:03:22.000Z</time>
      </trkpt>
      <trkpt lat="43.49491" lon="6.92774">
        <ele>119.59999847412</ele>
        <time>2011-01-21T15:03:45.000Z</time>
      </trkpt>
      <trkpt lat="43.49491" lon="6.92774">
        <ele>119.59999847412</ele>
        <time>2011-01-21T15:03:53.000Z</time>
      </trkpt>
      <trkpt lat="43.4949" lon="6.92773">
        <ele>119.59999847412</ele>
        <time>2011-01-21T15:04:02.000Z</time>
      </trkpt>
      <trkpt lat="43.4949" lon="6.92774">
        <ele>119.59999847412</ele>
        <time>2011-01-21T15:04:08.000Z</time>
      </trkpt>
      <trkpt lat="43.4949" lon="6.92771">
        <ele>119.40000152588</ele>
        <time>2011-01-21T15:04:23.000Z</time>
      </trkpt>
      <trkpt lat="43.49491" lon="6.92772">
        <ele>119.59999847412</ele>
        <time>2011-01-21T15:04:33.000Z</time>
      </trkpt>
      <trkpt lat="43.4949" lon="6.92773">
        <ele>119.40000152588</ele>
        <time>2011-01-21T15:04:44.000Z</time>
      </trkpt>
      <trkpt lat="43.49491" lon="6.92773">
        <ele>119.59999847412</ele>
        <time>2011-01-21T15:04:55.000Z</time>
      </trkpt>
      <trkpt lat="43.49491" lon="6.92774">
        <ele>119.59999847412</ele>
        <time>2011-01-21T15:05:04.000Z</time>
      </trkpt>
      <trkpt lat="43.49491" lon="6.92774">
        <ele>119.59999847412</ele>
        <time>2011-01-21T15:05:10.000Z</time>
      </trkpt>
      <trkpt lat="43.4949" lon="6.92773">
        <ele>119.40000152588</ele>
        <time>2011-01-21T15:05:21.000Z</time>
      </trkpt>
      <trkpt lat="43.4949" lon="6.92771">
        <ele>119.40000152588</ele>
        <time>2011-01-21T15:05:29.000Z</time>
      </trkpt>
      <trkpt lat="43.4949" lon="6.92771">
        <ele>119.40000152588</ele>
        <time>2011-01-21T15:05:36.000Z</time>
      </trkpt>
      <trkpt lat="43.4949" lon="6.92772">
        <ele>119.40000152588</ele>
        <time>2011-01-21T15:05:46.000Z</time>
      </trkpt>
      <trkpt lat="43.4949" lon="6.92773">
        <ele>119.40000152588</ele>
        <time>2011-01-21T15:06:01.000Z</time>
      </trkpt>
      <trkpt lat="43.4949" lon="6.92774">
        <ele>119.40000152588</ele>
        <time>2011-01-21T15:06:34.000Z</time>
      </trkpt>
      <trkpt lat="43.4949" lon="6.92774">
        <ele>119.40000152588</ele>
        <time>2011-01-21T15:06:45.000Z</time>
      </trkpt>
      <trkpt lat="43.4949" lon="6.92774">
        <ele>119.59999847412</ele>
        <time>2011-01-21T15:06:55.000Z</time>
      </trkpt>
      <trkpt lat="43.49491" lon="6.92774">
        <ele>119.59999847412</ele>
        <time>2011-01-21T15:07:15.000Z</time>
      </trkpt>
      <trkpt lat="43.49494" lon="6.92776">
        <ele>120</ele>
        <time>2011-01-21T15:07:24.000Z</time>
      </trkpt>
      <trkpt lat="43.49503" lon="6.92788">
        <ele>120.80000305176</ele>
        <time>2011-01-21T15:07:28.000Z</time>
      </trkpt>
      <trkpt lat="43.49512" lon="6.92813">
        <ele>119.40000152588</ele>
        <time>2011-01-21T15:07:32.000Z</time>
      </trkpt>
      <trkpt lat="43.49516" lon="6.92829">
        <ele>119</ele>
        <time>2011-01-21T15:07:35.000Z</time>
      </trkpt>
      <trkpt lat="43.4953" lon="6.92839">
        <ele>116</ele>
        <time>2011-01-21T15:07:39.000Z</time>
      </trkpt>
      <trkpt lat="43.49535" lon="6.92842">
        <ele>115</ele>
        <time>2011-01-21T15:07:40.000Z</time>
      </trkpt>
      <trkpt lat="43.49554" lon="6.92867">
        <ele>112.40000152588</ele>
        <time>2011-01-21T15:07:45.000Z</time>
      </trkpt>
      <trkpt lat="43.49565" lon="6.92878">
        <ele>110</ele>
        <time>2011-01-21T15:07:48.000Z</time>
      </trkpt>
      <trkpt lat="43.49577" lon="6.92885">
        <ele>106.80000305176</ele>
        <time>2011-01-21T15:07:51.000Z</time>
      </trkpt>
      <trkpt lat="43.49588" lon="6.92903">
        <ele>105.40000152588</ele>
        <time>2011-01-21T15:07:55.000Z</time>
      </trkpt>
      <trkpt lat="43.49598" lon="6.92919">
        <ele>104.59999847412</ele>
        <time>2011-01-21T15:07:59.000Z</time>
      </trkpt>
      <trkpt lat="43.496" lon="6.92923">
        <ele>104.40000152588</ele>
        <time>2011-01-21T15:08:00.000Z</time>
      </trkpt>
      <trkpt lat="43.49617" lon="6.92944">
        <ele>102.40000152588</ele>
        <time>2011-01-21T15:08:06.000Z</time>
      </trkpt>
      <trkpt lat="43.4963" lon="6.92951">
        <ele>100.19999694824</ele>
        <time>2011-01-21T15:08:09.000Z</time>
      </trkpt>
      <trkpt lat="43.4965" lon="6.92956">
        <ele>96.199996948242</ele>
        <time>2011-01-21T15:08:13.000Z</time>
      </trkpt>
      <trkpt lat="43.49667" lon="6.92969">
        <ele>93</ele>
        <time>2011-01-21T15:08:18.000Z</time>
      </trkpt>
      <trkpt lat="43.49675" lon="6.92974">
        <ele>93.199996948242</ele>
        <time>2011-01-21T15:08:20.000Z</time>
      </trkpt>
      <trkpt lat="43.49681" lon="6.92982">
        <ele>93</ele>
        <time>2011-01-21T15:08:22.000Z</time>
      </trkpt>
      <trkpt lat="43.49696" lon="6.93007">
        <ele>91.800003051758</ele>
        <time>2011-01-21T15:08:29.000Z</time>
      </trkpt>
      <trkpt lat="43.497" lon="6.93005">
        <ele>91.800003051758</ele>
        <time>2011-01-21T15:08:35.000Z</time>
      </trkpt>
      <trkpt lat="43.49708" lon="6.93019">
        <ele>90.599998474121</ele>
        <time>2011-01-21T15:08:40.000Z</time>
      </trkpt>
      <trkpt lat="43.49709" lon="6.93024">
        <ele>90.199996948242</ele>
        <time>2011-01-21T15:08:41.000Z</time>
      </trkpt>
      <trkpt lat="43.49715" lon="6.93051">
        <ele>87.599998474121</ele>
        <time>2011-01-21T15:08:45.000Z</time>
      </trkpt>
      <trkpt lat="43.49714" lon="6.9306">
        <ele>87</ele>
        <time>2011-01-21T15:08:46.000Z</time>
      </trkpt>
      <trkpt lat="43.49703" lon="6.93103">
        <ele>85</ele>
        <time>2011-01-21T15:08:52.000Z</time>
      </trkpt>
      <trkpt lat="43.49693" lon="6.93129">
        <ele>83.599998474121</ele>
        <time>2011-01-21T15:08:55.000Z</time>
      </trkpt>
      <trkpt lat="43.49679" lon="6.93166">
        <ele>80</ele>
        <time>2011-01-21T15:08:59.000Z</time>
      </trkpt>
      <trkpt lat="43.49666" lon="6.93186">
        <ele>79</ele>
        <time>2011-01-21T15:09:03.000Z</time>
      </trkpt>
      <trkpt lat="43.49661" lon="6.93193">
        <ele>80.599998474121</ele>
        <time>2011-01-21T15:09:05.000Z</time>
      </trkpt>
      <trkpt lat="43.49659" lon="6.93196">
        <ele>81</ele>
        <time>2011-01-21T15:09:07.000Z</time>
      </trkpt>
      <trkpt lat="43.49656" lon="6.93216">
        <ele>81</ele>
        <time>2011-01-21T15:09:12.000Z</time>
      </trkpt>
      <trkpt lat="43.49654" lon="6.93234">
        <ele>80.800003051758</ele>
        <time>2011-01-21T15:09:16.000Z</time>
      </trkpt>
      <trkpt lat="43.49658" lon="6.93265">
        <ele>77.400001525879</ele>
        <time>2011-01-21T15:09:21.000Z</time>
      </trkpt>
      <trkpt lat="43.49656" lon="6.93286">
        <ele>76.400001525879</ele>
        <time>2011-01-21T15:09:24.000Z</time>
      </trkpt>
      <trkpt lat="43.49654" lon="6.93304">
        <ele>75.599998474121</ele>
        <time>2011-01-21T15:09:27.000Z</time>
      </trkpt>
      <trkpt lat="43.49653" lon="6.93316">
        <ele>74.800003051758</ele>
        <time>2011-01-21T15:09:29.000Z</time>
      </trkpt>
      <trkpt lat="43.49654" lon="6.93326">
        <ele>73.800003051758</ele>
        <time>2011-01-21T15:09:31.000Z</time>
      </trkpt>
      <trkpt lat="43.49653" lon="6.93338">
        <ele>73.400001525879</ele>
        <time>2011-01-21T15:09:34.000Z</time>
      </trkpt>
      <trkpt lat="43.49656" lon="6.93347">
        <ele>72.400001525879</ele>
        <time>2011-01-21T15:09:37.000Z</time>
      </trkpt>
      <trkpt lat="43.49668" lon="6.93358">
        <ele>68.800003051758</ele>
        <time>2011-01-21T15:09:43.000Z</time>
      </trkpt>
      <trkpt lat="43.49674" lon="6.93374">
        <ele>69.400001525879</ele>
        <time>2011-01-21T15:09:47.000Z</time>
      </trkpt>
      <trkpt lat="43.49678" lon="6.93391">
        <ele>69.400001525879</ele>
        <time>2011-01-21T15:09:51.000Z</time>
      </trkpt>
      <trkpt lat="43.49682" lon="6.93397">
        <ele>69.400001525879</ele>
        <time>2011-01-21T15:09:53.000Z</time>
      </trkpt>
      <trkpt lat="43.49688" lon="6.93411">
        <ele>69.400001525879</ele>
        <time>2011-01-21T15:09:58.000Z</time>
      </trkpt>
      <trkpt lat="43.49694" lon="6.93428">
        <ele>69</ele>
        <time>2011-01-21T15:10:02.000Z</time>
      </trkpt>
      <trkpt lat="43.49697" lon="6.93452">
        <ele>68</ele>
        <time>2011-01-21T15:10:07.000Z</time>
      </trkpt>
      <trkpt lat="43.49703" lon="6.93483">
        <ele>66</ele>
        <time>2011-01-21T15:10:12.000Z</time>
      </trkpt>
      <trkpt lat="43.49706" lon="6.93511">
        <ele>64.400001525879</ele>
        <time>2011-01-21T15:10:16.000Z</time>
      </trkpt>
      <trkpt lat="43.49693" lon="6.93525">
        <ele>65.400001525879</ele>
        <time>2011-01-21T15:10:21.000Z</time>
      </trkpt>
      <trkpt lat="43.4969" lon="6.93528">
        <ele>65.599998474121</ele>
        <time>2011-01-21T15:10:22.000Z</time>
      </trkpt>
      <trkpt lat="43.49677" lon="6.93554">
        <ele>66</ele>
        <time>2011-01-21T15:10:28.000Z</time>
      </trkpt>
      <trkpt lat="43.49674" lon="6.93566">
        <ele>65.800003051758</ele>
        <time>2011-01-21T15:10:32.000Z</time>
      </trkpt>
      <trkpt lat="43.49675" lon="6.93565">
        <ele>65.800003051758</ele>
        <time>2011-01-21T15:10:33.000Z</time>
      </trkpt>
      <trkpt lat="43.49686" lon="6.9355">
        <ele>65.199996948242</ele>
        <time>2011-01-21T15:10:38.000Z</time>
      </trkpt>
      <trkpt lat="43.49688" lon="6.93548">
        <ele>65.199996948242</ele>
        <time>2011-01-21T15:10:39.000Z</time>
      </trkpt>
      <trkpt lat="43.49705" lon="6.93542">
        <ele>63.799999237061</ele>
        <time>2011-01-21T15:10:44.000Z</time>
      </trkpt>
      <trkpt lat="43.4972" lon="6.9355">
        <ele>62</ele>
        <time>2011-01-21T15:10:48.000Z</time>
      </trkpt>
      <trkpt lat="43.49725" lon="6.93551">
        <ele>61.599998474121</ele>
        <time>2011-01-21T15:10:51.000Z</time>
      </trkpt>
      <trkpt lat="43.4973" lon="6.93553">
        <ele>61.200000762939</ele>
        <time>2011-01-21T15:10:58.000Z</time>
      </trkpt>
      <trkpt lat="43.49748" lon="6.93559">
        <ele>59.400001525879</ele>
        <time>2011-01-21T15:11:02.000Z</time>
      </trkpt>
      <trkpt lat="43.49771" lon="6.9357">
        <ele>57</ele>
        <time>2011-01-21T15:11:06.000Z</time>
      </trkpt>
      <trkpt lat="43.49808" lon="6.93587">
        <ele>51</ele>
        <time>2011-01-21T15:11:13.000Z</time>
      </trkpt>
      <trkpt lat="43.49812" lon="6.93588">
        <ele>50.599998474121</ele>
        <time>2011-01-21T15:11:14.000Z</time>
      </trkpt>
      <trkpt lat="43.49821" lon="6.93599">
        <ele>50.799999237061</ele>
        <time>2011-01-21T15:11:17.000Z</time>
      </trkpt>
      <trkpt lat="43.49826" lon="6.93609">
        <ele>51</ele>
        <time>2011-01-21T15:11:19.000Z</time>
      </trkpt>
      <trkpt lat="43.49843" lon="6.9363">
        <ele>51.400001525879</ele>
        <time>2011-01-21T15:11:24.000Z</time>
      </trkpt>
      <trkpt lat="43.49852" lon="6.93636">
        <ele>51.400001525879</ele>
        <time>2011-01-21T15:11:26.000Z</time>
      </trkpt>
      <trkpt lat="43.49866" lon="6.93638">
        <ele>50.599998474121</ele>
        <time>2011-01-21T15:11:29.000Z</time>
      </trkpt>
      <trkpt lat="43.49895" lon="6.93635">
        <ele>48.400001525879</ele>
        <time>2011-01-21T15:11:35.000Z</time>
      </trkpt>
      <trkpt lat="43.49899" lon="6.93639">
        <ele>48.200000762939</ele>
        <time>2011-01-21T15:11:37.000Z</time>
      </trkpt>
      <trkpt lat="43.49917" lon="6.93638">
        <ele>47</ele>
        <time>2011-01-21T15:11:44.000Z</time>
      </trkpt>
      <trkpt lat="43.49932" lon="6.93648">
        <ele>45.799999237061</ele>
        <time>2011-01-21T15:11:49.000Z</time>
      </trkpt>
      <trkpt lat="43.49955" lon="6.9366">
        <ele>43.400001525879</ele>
        <time>2011-01-21T15:11:54.000Z</time>
      </trkpt>
      <trkpt lat="43.49959" lon="6.93661">
        <ele>43</ele>
        <time>2011-01-21T15:11:55.000Z</time>
      </trkpt>
      <trkpt lat="43.49981" lon="6.93672">
        <ele>41.599998474121</ele>
        <time>2011-01-21T15:12:00.000Z</time>
      </trkpt>
      <trkpt lat="43.49996" lon="6.93686">
        <ele>43</ele>
        <time>2011-01-21T15:12:04.000Z</time>
      </trkpt>
      <trkpt lat="43.50012" lon="6.93701">
        <ele>45.599998474121</ele>
        <time>2011-01-21T15:12:09.000Z</time>
      </trkpt>
      <trkpt lat="43.50014" lon="6.93703">
        <ele>46</ele>
        <time>2011-01-21T15:12:10.000Z</time>
      </trkpt>
      <trkpt lat="43.50016" lon="6.93705">
        <ele>46.200000762939</ele>
        <time>2011-01-21T15:12:17.000Z</time>
      </trkpt>
      <trkpt lat="43.50014" lon="6.93705">
        <ele>46.400001525879</ele>
        <time>2011-01-21T15:13:43.000Z</time>
      </trkpt>
      <trkpt lat="43.50014" lon="6.93704">
        <ele>46</ele>
        <time>2011-01-21T15:14:22.000Z</time>
      </trkpt>
      <trkpt lat="43.50014" lon="6.93703">
        <ele>45.799999237061</ele>
        <time>2011-01-21T15:14:57.000Z</time>
      </trkpt>
      <trkpt lat="43.50027" lon="6.9371">
        <ele>47</ele>
        <time>2011-01-21T15:16:03.000Z</time>
      </trkpt>
      <trkpt lat="43.50045" lon="6.93709">
        <ele>46.799999237061</ele>
        <time>2011-01-21T15:16:07.000Z</time>
      </trkpt>
      <trkpt lat="43.50056" lon="6.93706">
        <ele>46.400001525879</ele>
        <time>2011-01-21T15:16:09.000Z</time>
      </trkpt>
      <trkpt lat="43.50068" lon="6.93703">
        <ele>46.200000762939</ele>
        <time>2011-01-21T15:16:11.000Z</time>
      </trkpt>
      <trkpt lat="43.50091" lon="6.93708">
        <ele>46.799999237061</ele>
        <time>2011-01-21T15:16:15.000Z</time>
      </trkpt>
      <trkpt lat="43.50109" lon="6.93716">
        <ele>47.799999237061</ele>
        <time>2011-01-21T15:16:19.000Z</time>
      </trkpt>
      <trkpt lat="43.5013" lon="6.93719">
        <ele>48.599998474121</ele>
        <time>2011-01-21T15:16:23.000Z</time>
      </trkpt>
      <trkpt lat="43.5014" lon="6.93723">
        <ele>49</ele>
        <time>2011-01-21T15:16:25.000Z</time>
      </trkpt>
      <trkpt lat="43.50157" lon="6.93724">
        <ele>49.400001525879</ele>
        <time>2011-01-21T15:16:29.000Z</time>
      </trkpt>
      <trkpt lat="43.50187" lon="6.93717">
        <ele>49.599998474121</ele>
        <time>2011-01-21T15:16:38.000Z</time>
      </trkpt>
      <trkpt lat="43.50192" lon="6.93716">
        <ele>49.599998474121</ele>
        <time>2011-01-21T15:16:40.000Z</time>
      </trkpt>
      <trkpt lat="43.50212" lon="6.9372">
        <ele>48.799999237061</ele>
        <time>2011-01-21T15:16:43.000Z</time>
      </trkpt>
      <trkpt lat="43.50227" lon="6.93716">
        <ele>48.400001525879</ele>
        <time>2011-01-21T15:16:46.000Z</time>
      </trkpt>
      <trkpt lat="43.50261" lon="6.93698">
        <ele>46.799999237061</ele>
        <time>2011-01-21T15:16:53.000Z</time>
      </trkpt>
      <trkpt lat="43.50265" lon="6.93695">
        <ele>46.400001525879</ele>
        <time>2011-01-21T15:16:54.000Z</time>
      </trkpt>
      <trkpt lat="43.50282" lon="6.9369">
        <ele>44.400001525879</ele>
        <time>2011-01-21T15:16:58.000Z</time>
      </trkpt>
      <trkpt lat="43.50306" lon="6.93702">
        <ele>41.200000762939</ele>
        <time>2011-01-21T15:17:04.000Z</time>
      </trkpt>
      <trkpt lat="43.50311" lon="6.93706">
        <ele>40.599998474121</ele>
        <time>2011-01-21T15:17:05.000Z</time>
      </trkpt>
      <trkpt lat="43.50333" lon="6.9373">
        <ele>37.799999237061</ele>
        <time>2011-01-21T15:17:10.000Z</time>
      </trkpt>
      <trkpt lat="43.50337" lon="6.93731">
        <ele>37.799999237061</ele>
        <time>2011-01-21T15:17:12.000Z</time>
      </trkpt>
      <trkpt lat="43.50347" lon="6.93726">
        <ele>37.400001525879</ele>
        <time>2011-01-21T15:17:20.000Z</time>
      </trkpt>
      <trkpt lat="43.50351" lon="6.93727">
        <ele>37.200000762939</ele>
        <time>2011-01-21T15:17:24.000Z</time>
      </trkpt>
      <trkpt lat="43.50365" lon="6.93727">
        <ele>36.599998474121</ele>
        <time>2011-01-21T15:17:33.000Z</time>
      </trkpt>
      <trkpt lat="43.50361" lon="6.9373">
        <ele>36.599998474121</ele>
        <time>2011-01-21T15:17:49.000Z</time>
      </trkpt>
      <trkpt lat="43.50358" lon="6.9373">
        <ele>36.799999237061</ele>
        <time>2011-01-21T15:17:56.000Z</time>
      </trkpt>
      <trkpt lat="43.50356" lon="6.93728">
        <ele>37</ele>
        <time>2011-01-21T15:18:22.000Z</time>
      </trkpt>
      <trkpt lat="43.50354" lon="6.93731">
        <ele>36.799999237061</ele>
        <time>2011-01-21T15:18:28.000Z</time>
      </trkpt>
      <trkpt lat="43.50365" lon="6.93724">
        <ele>37</ele>
        <time>2011-01-21T15:20:23.000Z</time>
      </trkpt>
    </trkseg>
  </trk>
</gpx>